M I D A S
Marine Information and Data Acquisition System
Tripno 1600 of the Zeeleeuw from 2008-10-31 07:38:19 to 2008-10-31 15:32:40
Back to CruiseResearch ActivitiesStationsMapUnderway DataData graphs

EquipmentUnitsComment
TimeDGPSUTC
LatitudeDGPSDM.mWGS84
LongitudeDGPSDM.mWGS84
TemperatureSBE03/SBE38deg celciusITS90
ConductivitySBE21S/mITS90
SalinitySBE21 Practical Salinity Units
ChlorophylAChelsea fluorimeterg/lCalibrated in Aceton
Missing or incorrect values are displayed as -999
Sea surface data collected by the RV Zeeleeuw from 2008-10-31 07:39:31 to 2008-10-31 15:34:55
                                                                                    Next 1000 lines
Time Latitude Longitude Temperature Conductivity Salinity ChlorophylA
2008-10-31 07:39:43 51°13.624 2°56.041 -999 0.050647 0.307254 -1.244337
2008-10-31 07:39:48 51°13.625 2°56.037 -999 0.050647 0.307254 -1.244337
2008-10-31 07:39:53 51°13.625 2°56.033 -999 0.055278 0.33628 -1.279161
2008-10-31 07:39:58 51°13.626 2°56.028 -999 0.05394 0.327883 -1.244337
2008-10-31 07:40:04 51°13.628 2°56.021 -999 0.052808 0.320787 -1.279161
2008-10-31 07:40:09 51°13.629 2°56.014 -999 0.055072 0.334988 -1.279161
2008-10-31 07:40:15 51°13.631 2°56.006 -999 0.055587 0.338226 -1.244337
2008-10-31 07:40:20 51°13.633 2°55.998 -999 0.055587 0.338226 -1.244337
2008-10-31 07:40:26 51°13.635 2°55.989 -999 0.055484 0.337573 -1.244337
2008-10-31 07:40:31 51°13.636 2°55.981 -999 0.05466 0.33241 -1.244337
2008-10-31 07:40:36 51°13.638 2°55.973 -999 0.055381 0.33694 -1.279161
2008-10-31 07:40:41 51°13.64 2°55.965 -999 0.05569 0.33888 -1.279161
2008-10-31 07:40:46 51°13.641 2°55.956 -999 0.054969 0.334355 -1.244337
2008-10-31 07:40:51 51°13.643 2°55.947 -999 0.054969 0.334355 -1.244337
2008-10-31 07:40:56 51°13.646 2°55.937 -999 0.053734 0.326606 -1.279161
2008-10-31 07:41:01 51°13.648 2°55.928 -999 0.052911 0.321438 -1.279161
2008-10-31 07:41:06 51°13.65 2°55.918 -999 0.053117 0.322728 -1.244337
2008-10-31 07:41:11 51°13.653 2°55.908 -999 0.053837 0.327244 -1.279161
2008-10-31 07:41:16 51°13.656 2°55.899 -999 0.054969 0.334348 -1.279161
2008-10-31 07:41:21 51°13.659 2°55.889 -999 0.054969 0.334348 -1.279161
2008-10-31 07:41:26 51°13.662 2°55.88 -999 0.055792 0.339533 -1.279161
2008-10-31 07:41:31 51°13.665 2°55.872 -999 0.055072 0.335008 -1.244337
2008-10-31 07:41:36 51°13.668 2°55.863 -999 0.056204 0.342121 -1.244337
2008-10-31 07:41:41 51°13.671 2°55.855 -999 0.055278 0.336301 -1.244337
2008-10-31 07:41:46 51°13.674 2°55.847 -999 0.05569 0.338894 -1.279161
2008-10-31 07:41:51 51°13.677 2°55.84 -999 0.05569 0.338894 -1.279161
2008-10-31 07:41:56 51°13.68 2°55.832 -999 0.055792 0.33954 -1.279161
2008-10-31 07:42:01 51°13.683 2°55.825 -999 0.056616 0.344723 -1.244337
2008-10-31 07:42:06 51°13.685 2°55.818 -999 0.055792 0.339547 -1.244337
2008-10-31 07:42:11 51°13.688 2°55.812 -999 0.057645 0.351198 -1.279161
2008-10-31 07:42:16 51°13.69 2°55.807 -999 0.057439 0.349903 -1.244337
2008-10-31 07:42:21 51°13.692 2°55.803 -999 0.057439 0.349903 -1.244337
2008-10-31 07:42:26 51°13.692 2°55.802 -999 0.062173 0.379768 -1.244337
2008-10-31 07:42:31 51°13.693 2°55.801 -999 0.055998 0.340848 -1.244337
2008-10-31 07:42:35 51°13.694 2°55.8 -999 0.056616 0.344723 -1.244337
2008-10-31 07:42:40 51°13.694 2°55.798 -999 0.05394 0.32791 -1.244337
2008-10-31 07:42:45 51°13.695 2°55.796 -999 0.054558 0.331778 -1.279161
2008-10-31 07:42:50 51°13.695 2°55.793 -999 0.054558 0.331778 -1.279161
2008-10-31 07:42:55 51°13.696 2°55.79 -999 0.054558 0.331771 -1.244337
2008-10-31 07:42:59 51°13.696 2°55.787 -999 0.056204 0.342114 -1.244337
2008-10-31 07:43:04 51°13.697 2°55.782 -999 0.054249 0.329827 -1.279161
2008-10-31 07:43:09 51°13.697 2°55.777 -999 0.054352 0.330472 -1.279161
2008-10-31 07:43:15 51°13.698 2°55.77 -999 0.055895 0.340166 -1.279161
2008-10-31 07:43:20 51°13.698 2°55.764 -999 0.055895 0.340166 -1.279161
2008-10-31 07:43:25 51°13.698 2°55.758 -999 0.054763 0.333056 -1.279161
2008-10-31 07:43:31 51°13.698 2°55.751 -999 0.05641 0.343401 -1.279161
2008-10-31 07:43:36 51°13.698 2°55.746 -999 0.056307 0.342754 -1.244337
2008-10-31 07:43:41 51°13.698 2°55.741 -999 0.056822 0.345989 -1.244337
2008-10-31 07:43:46 51°13.698 2°55.737 -999 0.057027 0.347284 -1.279161
2008-10-31 07:43:51 51°13.698 2°55.734 -999 0.057027 0.347284 -1.279161
2008-10-31 07:43:56 51°13.698 2°55.732 -999 0.055895 0.340166 -1.279161
2008-10-31 07:44:01 51°13.698 2°55.73 -999 0.057542 0.350529 -1.279161
2008-10-31 07:44:06 51°13.698 2°55.729 -999 0.057336 0.349234 -1.244337
2008-10-31 07:44:11 51°13.698 2°55.728 -999 0.057748 0.351824 -1.244337
2008-10-31 07:44:16 51°13.698 2°55.727 -999 0.058057 0.353775 -1.244337
2008-10-31 07:44:20 51°13.698 2°55.727 -999 0.058057 0.353775 -1.244337
2008-10-31 07:44:25 51°13.698 2°55.727 -999 0.057336 0.349241 -1.244337
2008-10-31 07:44:30 51°13.699 2°55.727 -999 0.058057 0.353775 -1.279161
2008-10-31 07:44:35 51°13.699 2°55.728 -999 0.057439 0.349888 -1.244337
2008-10-31 07:44:40 51°13.7 2°55.729 -999 0.057748 0.351832 -1.279161
2008-10-31 07:44:44 51°13.701 2°55.73 -999 0.057645 0.351184 -1.279161
2008-10-31 07:44:49 51°13.702 2°55.731 -999 0.057645 0.351184 -1.279161
2008-10-31 07:44:53 51°13.703 2°55.731 -999 0.057542 0.350536 -1.279161
2008-10-31 07:44:59 51°13.704 2°55.733 -999 0.059291 0.361564 -1.279161
2008-10-31 07:45:03 51°13.706 2°55.734 -999 0.060115 0.366756 -1.244337
2008-10-31 07:45:08 51°13.708 2°55.735 -999 0.066701 0.40845 -1.279161
2008-10-31 07:45:12 51°13.71 2°55.736 -999 0.067319 0.412394 -1.244337
2008-10-31 07:45:18 51°13.715 2°55.737 -999 0.067319 0.412394 -1.244337
2008-10-31 07:45:23 51°13.719 2°55.737 -999 0.072773 0.447119 -1.244337
2008-10-31 07:45:28 51°13.724 2°55.736 -999 0.077095 0.474757 -1.279161
2008-10-31 07:45:32 51°13.728 2°55.734 -999 0.066804 0.409187 -1.279161
2008-10-31 07:45:38 51°13.735 2°55.73 -999 0.060938 0.372028 -1.244337
2008-10-31 07:45:43 51°13.741 2°55.725 -999 0.058983 0.359654 -1.279161
2008-10-31 07:45:48 51°13.747 2°55.72 -999 0.058983 0.359654 -1.279161
2008-10-31 07:45:52 51°13.752 2°55.715 -999 0.055792 0.33954 -1.279161
2008-10-31 07:45:58 51°13.761 2°55.706 -999 0.055792 0.339499 -1.279161
2008-10-31 07:46:03 51°13.768 2°55.698 -999 0.055072 0.334953 -1.279161
2008-10-31 07:46:08 51°13.776 2°55.69 -999 0.05394 0.32783 -1.244337
2008-10-31 07:46:12 51°13.782 2°55.683 -999 0.053631 0.325887 -1.279161
2008-10-31 07:46:18 51°13.792 2°55.674 -999 0.053631 0.325887 -1.279161
2008-10-31 07:46:23 51°13.801 2°55.665 -999 0.054043 0.328462 -1.279161
2008-10-31 07:46:28 51°13.809 2°55.657 -999 0.053837 0.327178 -1.279161
2008-10-31 07:46:33 51°13.819 2°55.649 -999 0.052602 0.319452 -1.244337
2008-10-31 07:46:38 51°13.828 2°55.64 -999 0.050441 0.305937 -1.244337
2008-10-31 07:46:43 51°13.837 2°55.632 -999 0.051161 0.310447 -1.279161
2008-10-31 07:46:48 51°13.846 2°55.624 -999 0.051161 0.310447 -1.279161
2008-10-31 07:46:52 51°13.853 2°55.618 -999 0.052191 0.316893 -1.244337
2008-10-31 07:46:58 51°13.864 2°55.609 -999 0.053734 0.326572 -1.244337
2008-10-31 07:47:03 51°13.872 2°55.602 -999 0.052499 0.318833 -1.244337
2008-10-31 07:47:08 51°13.881 2°55.595 -999 0.05394 0.32787 -1.244337
2008-10-31 07:47:12 51°13.888 2°55.589 -999 0.053323 0.323998 -1.279161
2008-10-31 07:47:18 51°13.898 2°55.581 -999 0.053323 0.323998 -1.279161
2008-10-31 07:47:23 51°13.906 2°55.574 -999 0.053837 0.327224 -1.279161
2008-10-31 07:47:28 51°13.914 2°55.567 -999 0.052705 0.320129 -1.279161
2008-10-31 07:47:32 51°13.92 2°55.561 -999 0.052396 0.318195 -1.244337
2008-10-31 07:47:38 51°13.929 2°55.553 -999 0.053631 0.325934 -1.279161
2008-10-31 07:47:43 51°13.938 2°55.547 -999 0.053426 0.324643 -1.279161
2008-10-31 07:47:48 51°13.946 2°55.541 -999 0.053426 0.324643 -1.279161
2008-10-31 07:47:52 51°13.952 2°55.536 -999 0.054866 0.333682 -1.244337
2008-10-31 07:47:58 51°13.962 2°55.529 -999 0.053426 0.32465 -1.244337
2008-10-31 07:48:03 51°13.97 2°55.522 -999 0.053426 0.324643 -1.279161
2008-10-31 07:48:08 51°13.978 2°55.516 -999 0.05466 0.33239 -1.279161
2008-10-31 07:48:12 51°13.985 2°55.511 -999 0.05322 0.323353 -1.279161
2008-10-31 07:48:18 51°13.995 2°55.504 -999 0.05322 0.323353 -1.279161
2008-10-31 07:48:23 51°14.003 2°55.497 -999 0.054249 0.329807 -1.279161
2008-10-31 07:48:28 51°14.012 2°55.491 -999 0.054043 0.328515 -1.279161
2008-10-31 07:48:32 51°14.019 2°55.485 -999 0.054866 0.333682 -1.244337
2008-10-31 07:48:38 51°14.029 2°55.477 -999 0.053734 0.326579 -1.279161
2008-10-31 07:48:43 51°14.038 2°55.47 -999 0.054352 0.330452 -1.244337
2008-10-31 07:48:48 51°14.048 2°55.463 -999 0.054352 0.330452 -1.244337
2008-10-31 07:48:53 51°14.058 2°55.455 -999 0.052602 0.319484 -1.244337
2008-10-31 07:48:58 51°14.068 2°55.447 -999 0.055792 0.339499 -1.279161
2008-10-31 07:49:03 51°14.079 2°55.439 -999 0.051367 0.311753 -1.279161
2008-10-31 07:49:08 51°14.09 2°55.43 -999 0.054249 0.3298 -1.279161
2008-10-31 07:49:13 51°14.101 2°55.422 -999 0.051882 0.314967 -1.279161
2008-10-31 07:49:18 51°14.113 2°55.413 -999 0.051882 0.314967 -1.279161
2008-10-31 07:49:23 51°14.124 2°55.404 -999 0.054352 0.330439 -1.244337
2008-10-31 07:49:28 51°14.136 2°55.395 -999 0.054558 0.331737 -1.279161
2008-10-31 07:49:32 51°14.146 2°55.387 -999 0.052396 0.318189 -1.244337
2008-10-31 07:49:38 51°14.16 2°55.374 -999 0.053837 0.327218 -1.279161
2008-10-31 07:49:43 51°14.172 2°55.362 -999 0.052396 0.318189 -1.279161
2008-10-31 07:49:48 51°14.184 2°55.35 -999 0.052396 0.318189 -1.279161
2008-10-31 07:49:53 51°14.196 2°55.337 -999 0.054249 0.329793 -1.279161
2008-10-31 07:49:58 51°14.208 2°55.324 -999 0.052602 0.319478 -1.279161
2008-10-31 07:50:03 51°14.22 2°55.309 -999 0.053426 0.324623 -1.244337
2008-10-31 07:50:08 51°14.232 2°55.294 -999 0.058571 0.356965 -1.279161
2008-10-31 07:50:12 51°14.242 2°55.282 -999 0.056719 0.345328 -1.279161
2008-10-31 07:50:18 51°14.256 2°55.262 -999 0.056719 0.345328 -1.279161
2008-10-31 07:50:23 51°14.267 2°55.244 -999 0.054352 0.330446 -1.279161
2008-10-31 07:50:28 51°14.277 2°55.226 -999 0.055484 0.337545 -1.244337
2008-10-31 07:50:32 51°14.286 2°55.211 -999 0.051882 0.314948 -1.279161
2008-10-31 07:50:38 51°14.298 2°55.188 -999 0.058777 0.358225 -1.279161
2008-10-31 07:50:43 51°14.308 2°55.168 -999 0.060938 0.371898 -1.244337
2008-10-31 07:50:48 51°14.317 2°55.148 -999 0.060938 0.371898 -1.244337
2008-10-31 07:50:53 51°14.327 2°55.128 -999 0.055278 0.336266 -1.244337
2008-10-31 07:50:58 51°14.336 2°55.107 -999 0.054866 0.333689 -1.279161
2008-10-31 07:51:03 51°14.345 2°55.085 -999 0.058983 0.359596 -1.244337
2008-10-31 07:51:08 51°14.354 2°55.064 -999 0.057439 0.349831 -1.244337
2008-10-31 07:51:12 51°14.361 2°55.046 -999 0.059291 0.36143 -1.279161
2008-10-31 07:51:18 51°14.371 2°55.02 -999 0.059291 0.36143 -1.279161
2008-10-31 07:51:23 51°14.379 2°54.997 -999 0.061658 0.3763 -1.279161
2008-10-31 07:51:28 51°14.388 2°54.975 -999 0.068348 0.418645 -1.279161
2008-10-31 07:51:32 51°14.394 2°54.956 -999 0.060321 0.367821 -1.279161
2008-10-31 07:51:38 51°14.404 2°54.929 -999 0.059806 0.364554 -1.279161
2008-10-31 07:51:43 51°14.413 2°54.906 -999 0.063614 0.388593 -1.279161
2008-10-31 07:51:48 51°14.423 2°54.885 -999 0.063614 0.388593 -1.279161
2008-10-31 07:51:52 51°14.432 2°54.869 -999 0.078948 0.486181 -1.244337
2008-10-31 07:51:58 51°14.447 2°54.846 -999 0.085226 0.52663 -1.244337
2008-10-31 07:52:03 51°14.459 2°54.828 -999 0.068554 0.420133 -1.279161
2008-10-31 07:52:08 51°14.472 2°54.81 -999 0.08255 0.509519 -1.244337
2008-10-31 07:52:12 51°14.482 2°54.798 -999 0.086564 0.535311 -1.279161
2008-10-31 07:52:18 51°14.499 2°54.78 -999 0.086564 0.535311 -1.279161
2008-10-31 07:52:22 51°14.51 2°54.769 -999 0.121762 0.764246 -1.279161
2008-10-31 07:52:28 51°14.527 2°54.752 -999 0.120629 0.756865 -1.244337
2008-10-31 07:52:33 51°14.541 2°54.737 -999 0.091812 0.5692 -1.244337
2008-10-31 07:52:38 51°14.555 2°54.722 -999 0.086564 0.535278 -1.279161
2008-10-31 07:52:43 51°14.568 2°54.706 -999 0.114969 0.719571 -1.279161
2008-10-31 07:52:48 51°14.582 2°54.69 -999 0.114969 0.719571 -1.279161
2008-10-31 07:52:52 51°14.593 2°54.678 -999 0.091915 0.569794 -1.279161
2008-10-31 07:52:58 51°14.609 2°54.659 -999 0.094694 0.587688 -1.279161
2008-10-31 07:53:03 51°14.623 2°54.644 -999 0.086975 0.537782 -1.279161
2008-10-31 07:53:08 51°14.637 2°54.627 -999 0.107353 0.669681 -1.244337
2008-10-31 07:53:12 51°14.648 2°54.615 -999 0.123614 0.776056 -1.279161
2008-10-31 07:53:18 51°14.664 2°54.596 -999 0.123614 0.776056 -1.279161
2008-10-31 07:53:23 51°14.678 2°54.58 -999 0.094076 0.583514 -1.279161
2008-10-31 07:53:28 51°14.692 2°54.565 -999 0.08821 0.545709 -1.244337
2008-10-31 07:53:32 51°14.703 2°54.552 -999 0.102207 0.636233 -1.279161
2008-10-31 07:53:38 51°14.719 2°54.534 -999 0.088828 0.549743 -1.244337
2008-10-31 07:53:43 51°14.733 2°54.519 -999 0.087078 0.538355 -1.279161
2008-10-31 07:53:48 51°14.747 2°54.503 -999 0.087078 0.538355 -1.279161
2008-10-31 07:53:52 51°14.758 2°54.491 -999 0.102721 0.639322 -1.244337
2008-10-31 07:53:58 51°14.775 2°54.474 -999 0.098193 0.610187 -1.279161
2008-10-31 07:54:03 51°14.788 2°54.459 -999 0.093047 0.577093 -1.244337
2008-10-31 07:54:08 51°14.802 2°54.445 -999 0.094591 0.587096 -1.279161
2008-10-31 07:54:12 51°14.813 2°54.433 -999 0.085534 0.528691 -1.244337
2008-10-31 07:54:18 51°14.83 2°54.416 -999 0.085534 0.528691 -1.244337
2008-10-31 07:54:23 51°14.843 2°54.401 -999 0.083682 0.517001 -1.279161
2008-10-31 07:54:28 51°14.857 2°54.387 -999 0.087078 0.539237 -1.244337
2008-10-31 07:54:32 51°14.868 2°54.375 -999 0.079051 0.487443 -1.244337
2008-10-31 07:54:38 51°14.885 2°54.358 -999 0.099531 0.619218 -1.279161
2008-10-31 07:54:42 51°14.896 2°54.347 -999 0.087901 0.543777 -1.244337
2008-10-31 07:54:48 51°14.912 2°54.331 -999 0.087901 0.543777 -1.244337
2008-10-31 07:54:53 51°14.926 2°54.317 -999 0.08008 0.493529 -1.244337
2008-10-31 07:54:58 51°14.94 2°54.304 -999 0.09315 0.577818 -1.279161
2008-10-31 07:55:03 51°14.954 2°54.291 -999 0.103648 0.646223 -1.279161
2008-10-31 07:55:08 51°14.967 2°54.278 -999 0.080492 0.496874 -1.244337
2008-10-31 07:55:13 51°14.981 2°54.265 -999 0.085432 0.528708 -1.244337
2008-10-31 07:55:18 51°14.995 2°54.252 -999 0.085432 0.528708 -1.244337
2008-10-31 07:55:23 51°15.009 2°54.239 -999 0.086049 0.532751 -1.244337
2008-10-31 07:55:28 51°15.023 2°54.226 -999 0.087901 0.544804 -1.244337
2008-10-31 07:55:32 51°15.034 2°54.216 -999 0.07936 0.489826 -1.279161
2008-10-31 07:55:38 51°15.051 2°54.201 -999 0.127628 0.804066 -1.279161
2008-10-31 07:55:43 51°15.065 2°54.188 -999 0.100457 0.626269 -1.279161
2008-10-31 07:55:48 51°15.078 2°54.175 -999 0.100457 0.626269 -1.279161
2008-10-31 07:55:52 51°15.09 2°54.164 -999 0.091092 0.565276 -1.279161
2008-10-31 07:55:58 51°15.106 2°54.149 -999 0.097987 0.609955 -1.244337
2008-10-31 07:56:03 51°15.12 2°54.135 -999 0.100457 0.626178 -1.244337
2008-10-31 07:56:08 51°15.134 2°54.122 -999 0.09737 0.606137 -1.279161
2008-10-31 07:56:12 51°15.145 2°54.111 -999 0.088622 0.549316 -1.244337
2008-10-31 07:56:18 51°15.162 2°54.096 -999 0.088622 0.549316 -1.244337
2008-10-31 07:56:23 51°15.176 2°54.082 -999 0.087078 0.539394 -1.279161
2008-10-31 07:56:28 51°15.19 2°54.069 -999 0.094488 0.58732 -1.244337
2008-10-31 07:56:32 51°15.201 2°54.058 -999 0.09737 0.606074 -1.244337
2008-10-31 07:56:38 51°15.218 2°54.042 -999 0.105912 0.661774 -1.244337
2008-10-31 07:56:43 51°15.232 2°54.028 -999 0.095311 0.592739 -1.279161
2008-10-31 07:56:48 51°15.246 2°54.015 -999 0.095311 0.592739 -1.279161
2008-10-31 07:56:52 51°15.258 2°54.004 -999 0.112808 0.706871 -1.279161
2008-10-31 07:56:58 51°15.275 2°53.989 -999 0.098193 0.611469 -1.244337
2008-10-31 07:57:03 51°15.289 2°53.975 -999 0.089239 0.553392 -1.279161
2008-10-31 07:57:08 51°15.302 2°53.962 -999 0.084608 0.523442 -1.279161
2008-10-31 07:57:12 51°15.314 2°53.95 -999 0.085637 0.529979 -1.244337
2008-10-31 07:57:18 51°15.331 2°53.935 -999 0.085637 0.529979 -1.244337
2008-10-31 07:57:23 51°15.345 2°53.92 -999 0.138023 0.872583 -1.279161
2008-10-31 07:57:28 51°15.359 2°53.908 -999 0.099119 0.617664 -1.279161
2008-10-31 07:57:32 51°15.37 2°53.897 -999 0.087799 0.544174 -1.244337
2008-10-31 07:57:38 51°15.386 2°53.88 -999 0.095209 0.592023 -1.244337
2008-10-31 07:57:43 51°15.4 2°53.866 -999 0.10653 0.665719 -1.244337
2008-10-31 07:57:48 51°15.414 2°53.853 -999 0.10653 0.665719 -1.244337
2008-10-31 07:57:52 51°15.425 2°53.842 -999 0.086461 0.535725 -1.244337
2008-10-31 07:57:58 51°15.442 2°53.826 -999 0.078227 0.482928 -1.279161
2008-10-31 07:58:03 51°15.456 2°53.812 -999 0.094179 0.586063 -1.244337
2008-10-31 07:58:08 51°15.47 2°53.798 -999 0.092636 0.576179 -1.279161
2008-10-31 07:58:12 51°15.481 2°53.787 -999 0.124129 0.782371 -1.244337
2008-10-31 07:58:18 51°15.498 2°53.771 -999 0.124129 0.782371 -1.244337
2008-10-31 07:58:23 51°15.512 2°53.757 -999 0.092018 0.57256 -1.279161
2008-10-31 07:58:28 51°15.527 2°53.744 -999 0.079668 0.492684 -1.279161
2008-10-31 07:58:32 51°15.538 2°53.734 -999 0.106324 0.66543 -1.244337
2008-10-31 07:58:38 51°15.555 2°53.718 -999 0.082653 0.511885 -1.279161
2008-10-31 07:58:43 51°15.57 2°53.706 -999 0.100972 0.6306 -1.279161
2008-10-31 07:58:48 51°15.584 2°53.693 -999 0.100972 0.6306 -1.279161
2008-10-31 07:58:52 51°15.596 2°53.683 -999 0.08502 0.527118 -1.279161
2008-10-31 07:58:58 51°15.613 2°53.668 -999 0.08574 0.531689 -1.244337
2008-10-31 07:59:03 51°15.627 2°53.656 -999 0.087593 0.543591 -1.279161
2008-10-31 07:59:08 51°15.642 2°53.643 -999 0.090371 0.561485 -1.279161
2008-10-31 07:59:12 51°15.653 2°53.633 -999 0.094385 0.587496 -1.279161
2008-10-31 07:59:18 51°15.671 2°53.618 -999 0.094385 0.587496 -1.279161
2008-10-31 07:59:22 51°15.682 2°53.608 -999 0.07833 0.483909 -1.244337
2008-10-31 07:59:28 51°15.7 2°53.593 -999 0.08008 0.495176 -1.279161
2008-10-31 07:59:33 51°15.714 2°53.581 -999 0.074934 0.462301 -1.244337
2008-10-31 07:59:38 51°15.728 2°53.568 -999 0.085843 0.532585 -1.279161
2008-10-31 07:59:43 51°15.743 2°53.555 -999 0.07442 0.459377 -1.244337
2008-10-31 07:59:48 51°15.757 2°53.543 -999 0.07442 0.459377 -1.244337
2008-10-31 07:59:52 51°15.769 2°53.532 -999 0.088931 0.553145 -1.279161
2008-10-31 07:59:58 51°15.786 2°53.517 -999 0.090063 0.560455 -1.244337
2008-10-31 08:00:03 51°15.8 2°53.505 -999 0.076993 0.476106 -1.279161
2008-10-31 08:00:08 51°15.815 2°53.492 -999 0.078948 0.488583 -1.244337
2008-10-31 08:00:12 51°15.826 2°53.482 -999 0.090269 0.561613 -1.279161
2008-10-31 08:00:18 51°15.844 2°53.467 -999 0.090269 0.561613 -1.279161
2008-10-31 08:00:23 51°15.858 2°53.454 -999 0.094179 0.586919 -1.244337
2008-10-31 08:00:28 51°15.872 2°53.442 -999 0.102927 0.643707 -1.244337
2008-10-31 08:00:32 51°15.884 2°53.432 -999 0.093871 0.584524 -1.244337
2008-10-31 08:00:38 51°15.901 2°53.416 -999 0.089034 0.553028 -1.279161
2008-10-31 08:00:43 51°15.915 2°53.403 -999 0.080595 0.49838 -1.244337
2008-10-31 08:00:48 51°15.929 2°53.39 -999 0.080595 0.49838 -1.244337
2008-10-31 08:00:52 51°15.941 2°53.38 -999 0.088931 0.551938 -1.244337
2008-10-31 08:00:58 51°15.958 2°53.364 -999 0.080286 0.49617 -1.244337
2008-10-31 08:01:03 51°15.972 2°53.352 -999 0.076581 0.472521 -1.244337
2008-10-31 08:01:08 51°15.987 2°53.34 -999 0.07267 0.447598 -1.244337
2008-10-31 08:01:12 51°15.999 2°53.33 -999 0.101075 0.631165 -1.244337
2008-10-31 08:01:18 51°16.016 2°53.315 -999 0.101075 0.631165 -1.244337
2008-10-31 08:01:23 51°16.03 2°53.302 -999 0.106941 0.669772 -1.244337
2008-10-31 08:01:28 51°16.045 2°53.29 -999 0.097164 0.606025 -1.244337
2008-10-31 08:01:32 51°16.057 2°53.28 -999 0.100457 0.627406 -1.244337
2008-10-31 08:01:38 51°16.074 2°53.266 -999 0.089548 0.55653 -1.279161
2008-10-31 08:01:43 51°16.089 2°53.254 -999 0.108073 0.676752 -1.279161
2008-10-31 08:01:48 51°16.104 2°53.242 -999 0.108073 0.676752 -1.279161
2008-10-31 08:01:52 51°16.116 2°53.232 -999 0.096855 0.603426 -1.279161
2008-10-31 08:01:58 51°16.134 2°53.217 -999 0.083579 0.517422 -1.279161
2008-10-31 08:02:03 51°16.148 2°53.203 -999 0.088931 0.551984 -1.244337
2008-10-31 08:02:08 51°16.162 2°53.19 -999 0.09562 0.59536 -1.244337
2008-10-31 08:02:12 51°16.173 2°53.179 -999 0.084917 0.526138 -1.279161
2008-10-31 08:02:18 51°16.19 2°53.163 -999 0.084917 0.526138 -1.279161
2008-10-31 08:02:23 51°16.204 2°53.149 -999 0.092739 0.576785 -1.244337
2008-10-31 08:02:28 51°16.218 2°53.136 -999 0.089445 0.555459 -1.244337
2008-10-31 08:02:33 51°16.232 2°53.122 -999 0.088519 0.549381 -1.279161
2008-10-31 08:02:38 51°16.245 2°53.108 -999 0.111264 0.697104 -1.279161
2008-10-31 08:02:43 51°16.259 2°53.094 -999 0.080286 0.49617 -1.279161
2008-10-31 08:02:48 51°16.273 2°53.08 -999 0.080286 0.49617 -1.279161
2008-10-31 08:02:52 51°16.285 2°53.069 -999 0.079257 0.489582 -1.244337
2008-10-31 08:02:58 51°16.302 2°53.053 -999 0.102413 0.64023 -1.279161
2008-10-31 08:03:03 51°16.316 2°53.041 -999 0.09243 0.576105 -1.244337
2008-10-31 08:03:08 51°16.33 2°53.028 -999 0.080183 0.496982 -1.279161
2008-10-31 08:03:12 51°16.342 2°53.018 -999 0.144816 0.921111 -1.244337
2008-10-31 08:03:18 51°16.359 2°53.003 -999 0.144816 0.921111 -1.244337
2008-10-31 08:03:23 51°16.373 2°52.992 -999 0.093665 0.583773 -1.279161
2008-10-31 08:03:28 51°16.388 2°52.98 -999 0.100354 0.626958 -1.279161
2008-10-31 08:03:32 51°16.4 2°52.971 -999 0.08183 0.506721 -1.279161
2008-10-31 08:03:38 51°16.417 2°52.957 -999 0.118468 0.745599 -1.279161
2008-10-31 08:03:43 51°16.432 2°52.945 -999 0.092944 0.578227 -1.279161
2008-10-31 08:03:48 51°16.446 2°52.934 -999 0.092944 0.578227 -1.279161
2008-10-31 08:03:52 51°16.458 2°52.924 -999 0.096546 0.600971 -1.279161
2008-10-31 08:03:58 51°16.476 2°52.91 -999 0.103854 0.648426 -1.279161
2008-10-31 08:04:03 51°16.49 2°52.898 -999 0.102619 0.640209 -1.279161
2008-10-31 08:04:08 51°16.505 2°52.887 -999 0.082962 0.513372 -1.244337
2008-10-31 08:04:12 51°16.517 2°52.877 -999 0.09068 0.5634 -1.244337
2008-10-31 08:04:18 51°16.535 2°52.863 -999 0.09068 0.5634 -1.244337
2008-10-31 08:04:23 51°16.55 2°52.852 -999 0.084917 0.526017 -1.244337
2008-10-31 08:04:28 51°16.564 2°52.841 -999 0.138229 0.874641 -1.244337
2008-10-31 08:04:33 51°16.579 2°52.829 -999 0.108279 0.678466 -1.279161
2008-10-31 08:04:38 51°16.594 2°52.819 -999 0.105294 0.657761 -1.244337
2008-10-31 08:04:43 51°16.61 2°52.809 -999 0.117027 0.735614 -1.244337
2008-10-31 08:04:48 51°16.625 2°52.799 -999 0.117027 0.735614 -1.244337
2008-10-31 08:04:53 51°16.64 2°52.788 -999 0.126393 0.79791 -1.244337
2008-10-31 08:04:58 51°16.655 2°52.778 -999 0.096547 0.601998 -1.279161
2008-10-31 08:05:03 51°16.669 2°52.768 -999 0.11641 0.731756 -1.279161
2008-10-31 08:05:08 51°16.684 2°52.758 -999 0.083373 0.516643 -1.244337
2008-10-31 08:05:12 51°16.695 2°52.75 -999 0.092018 0.572226 -1.244337
2008-10-31 08:05:18 51°16.713 2°52.738 -999 0.092018 0.572226 -1.244337
2008-10-31 08:05:23 51°16.727 2°52.727 -999 0.086769 0.538689 -1.244337
2008-10-31 08:05:28 51°16.741 2°52.717 -999 0.110543 0.693781 -1.279161
2008-10-31 08:05:32 51°16.753 2°52.709 -999 0.087181 0.541856 -1.279161
2008-10-31 08:05:38 51°16.77 2°52.697 -999 0.119806 0.754879 -1.244337
2008-10-31 08:05:43 51°16.784 2°52.686 -999 0.091504 0.569783 -1.279161
2008-10-31 08:05:48 51°16.799 2°52.676 -999 0.091504 0.569783 -1.279161
2008-10-31 08:05:52 51°16.81 2°52.668 -999 0.097679 0.609816 -1.279161
2008-10-31 08:05:58 51°16.827 2°52.655 -999 0.122173 0.769951 -1.244337
2008-10-31 08:06:03 51°16.841 2°52.645 -999 0.096135 0.599261 -1.244337
2008-10-31 08:06:08 51°16.855 2°52.634 -999 0.101075 0.631376 -1.279161
2008-10-31 08:06:12 51°16.867 2°52.626 -999 0.114557 0.719606 -1.279161
2008-10-31 08:06:18 51°16.884 2°52.613 -999 0.114557 0.719606 -1.279161
2008-10-31 08:06:23 51°16.898 2°52.603 -999 0.083682 0.518741 -1.244337
2008-10-31 08:06:28 51°16.912 2°52.592 -999 0.088828 0.551938 -1.279161
2008-10-31 08:06:32 51°16.924 2°52.584 -999 0.113219 0.710872 -1.279161
2008-10-31 08:06:38 51°16.941 2°52.572 -999 0.104677 0.655252 -1.279161
2008-10-31 08:06:43 51°16.956 2°52.563 -999 0.092224 0.573595 -1.279161
2008-10-31 08:06:48 51°16.971 2°52.553 -999 0.092224 0.573595 -1.279161
2008-10-31 08:06:52 51°16.983 2°52.545 -999 0.078639 0.48574 -1.279161
2008-10-31 08:06:58 51°17 2°52.534 -999 0.102722 0.641427 -1.244337
2008-10-31 08:07:03 51°17.015 2°52.525 -999 0.124438 0.784456 -1.279161
2008-10-31 08:07:08 51°17.029 2°52.515 -999 0.101384 0.633957 -1.244337
2008-10-31 08:07:12 51°17.041 2°52.508 -999 0.105809 0.66283 -1.244337
2008-10-31 08:07:18 51°17.058 2°52.497 -999 0.105809 0.66283 -1.244337
2008-10-31 08:07:23 51°17.073 2°52.488 -999 0.076478 0.472742 -1.244337
2008-10-31 08:07:28 51°17.087 2°52.479 -999 0.09562 0.596864 -1.244337
2008-10-31 08:07:32 51°17.099 2°52.471 -999 0.082138 0.509535 -1.244337
2008-10-31 08:07:38 51°17.116 2°52.459 -999 0.103339 0.647273 -1.244337
2008-10-31 08:07:43 51°17.131 2°52.449 -999 0.088107 0.548112 -1.279161
2008-10-31 08:07:48 51°17.146 2°52.439 -999 0.088107 0.548112 -1.279161
2008-10-31 08:07:52 51°17.157 2°52.431 -999 0.093665 0.583846 -1.244337
2008-10-31 08:07:58 51°17.175 2°52.419 -999 0.098296 0.613772 -1.244337
2008-10-31 08:08:03 51°17.189 2°52.409 -999 0.09315 0.580153 -1.244337
2008-10-31 08:08:08 51°17.203 2°52.398 -999 0.096958 0.6048 -1.279161
2008-10-31 08:08:12 51°17.215 2°52.389 -999 0.093665 0.583456 -1.279161
2008-10-31 08:08:18 51°17.232 2°52.376 -999 0.093665 0.583456 -1.279161
2008-10-31 08:08:23 51°17.247 2°52.365 -999 0.095209 0.593455 -1.244337
2008-10-31 08:08:28 51°17.261 2°52.354 -999 0.083785 0.519469 -1.279161
2008-10-31 08:08:33 51°17.275 2°52.343 -999 0.089548 0.556831 -1.279161
2008-10-31 08:08:38 51°17.29 2°52.332 -999 0.100972 0.631166 -1.279161
2008-10-31 08:08:43 51°17.304 2°52.319 -999 0.08183 0.50709 -1.279161
2008-10-31 08:08:48 51°17.318 2°52.308 -999 0.08183 0.50709 -1.279161
2008-10-31 08:08:52 51°17.329 2°52.298 -999 0.091401 0.568831 -1.279161
2008-10-31 08:08:58 51°17.346 2°52.283 -999 0.089342 0.555418 -1.279161
2008-10-31 08:09:03 51°17.36 2°52.271 -999 0.106632 0.668019 -1.244337
2008-10-31 08:09:08 51°17.374 2°52.259 -999 0.115381 0.725345 -1.244337
2008-10-31 08:09:12 51°17.385 2°52.249 -999 0.101178 0.632271 -1.244337
2008-10-31 08:09:18 51°17.402 2°52.234 -999 0.101178 0.632271 -1.244337
2008-10-31 08:09:23 51°17.415 2°52.221 -999 0.132054 0.835283 -1.244337
2008-10-31 08:09:28 51°17.429 2°52.209 -999 0.126084 0.795421 -1.279161
2008-10-31 08:09:32 51°17.441 2°52.198 -999 0.10797 0.676489 -1.244337
2008-10-31 08:09:38 51°17.457 2°52.182 -999 0.097782 0.609773 -1.279161
2008-10-31 08:09:43 51°17.47 2°52.169 -999 0.110029 0.689687 -1.279161
2008-10-31 08:09:48 51°17.484 2°52.155 -999 0.110029 0.689687 -1.279161
2008-10-31 08:09:52 51°17.494 2°52.145 -999 0.167769 1.072786 -1.244337
2008-10-31 08:09:58 51°17.51 2°52.129 -999 0.117851 0.741195 -1.279161
2008-10-31 08:10:03 51°17.524 2°52.116 -999 0.097164 0.607203 -1.279161
2008-10-31 08:10:08 51°17.537 2°52.102 -999 0.093665 0.584553 -1.244337
2008-10-31 08:10:12 51°17.548 2°52.091 -999 0.088313 0.549709 -1.279161
2008-10-31 08:10:18 51°17.563 2°52.074 -999 0.088313 0.549709 -1.279161
2008-10-31 08:10:23 51°17.577 2°52.06 -999 0.093974 0.586451 -1.244337
2008-10-31 08:10:28 51°17.59 2°52.046 -999 0.113013 0.710696 -1.244337
2008-10-31 08:10:32 51°17.601 2°52.035 -999 0.095209 0.593888 -1.279161
2008-10-31 08:10:38 51°17.617 2°52.018 -999 0.111675 0.700984 -1.279161
2008-10-31 08:10:43 51°17.63 2°52.005 -999 0.169827 1.087304 -1.244337
2008-10-31 08:10:48 51°17.644 2°51.992 -999 0.169827 1.087304 -1.244337
2008-10-31 08:10:52 51°17.655 2°51.981 -999 0.122276 0.770742 -1.244337
2008-10-31 08:10:58 51°17.671 2°51.966 -999 0.103751 0.649379 -1.244337
2008-10-31 08:11:03 51°17.685 2°51.954 -999 0.11147 0.700367 -1.244337
2008-10-31 08:11:08 51°17.699 2°51.942 -999 0.099428 0.621521 -1.244337
2008-10-31 08:11:13 51°17.712 2°51.929 -999 0.096752 0.603979 -1.244337
2008-10-31 08:11:18 51°17.726 2°51.916 -999 0.096752 0.603979 -1.244337
2008-10-31 08:11:23 51°17.74 2°51.903 -999 0.097987 0.61189 -1.244337
2008-10-31 08:11:28 51°17.753 2°51.89 -999 0.094797 0.591139 -1.244337
2008-10-31 08:11:32 51°17.764 2°51.879 -999 0.085226 0.529095 -1.244337
2008-10-31 08:11:38 51°17.78 2°51.862 -999 0.116204 0.731046 -1.279161
2008-10-31 08:11:43 51°17.793 2°51.848 -999 0.083476 0.517748 -1.244337
2008-10-31 08:11:48 51°17.807 2°51.834 -999 0.083476 0.517748 -1.244337
2008-10-31 08:11:52 51°17.817 2°51.823 -999 0.106118 0.664807 -1.279161
2008-10-31 08:11:58 51°17.833 2°51.807 -999 0.131025 0.82885 -1.279161
2008-10-31 08:12:03 51°17.846 2°51.792 -999 0.096238 0.600468 -1.279161
2008-10-31 08:12:08 51°17.86 2°51.779 -999 0.091915 0.572298 -1.244337
2008-10-31 08:12:12 51°17.871 2°51.767 -999 0.084094 0.521601 -1.279161
2008-10-31 08:12:18 51°17.887 2°51.751 -999 0.084094 0.521601 -1.279161
2008-10-31 08:12:23 51°17.901 2°51.737 -999 0.136582 0.86545 -1.244337
2008-10-31 08:12:28 51°17.914 2°51.723 -999 0.129995 0.82207 -1.244337
2008-10-31 08:12:32 51°17.925 2°51.712 -999 0.094077 0.586422 -1.279161
2008-10-31 08:12:38 51°17.941 2°51.695 -999 0.088725 0.551583 -1.279161
2008-10-31 08:12:43 51°17.954 2°51.681 -999 0.087696 0.544993 -1.279161
2008-10-31 08:12:48 51°17.968 2°51.667 -999 0.087696 0.544993 -1.279161
2008-10-31 08:12:52 51°17.978 2°51.656 -999 0.091092 0.567209 -1.279161
2008-10-31 08:12:58 51°17.995 2°51.639 -999 0.082447 0.511537 -1.244337
2008-10-31 08:13:03 51°18.008 2°51.626 -999 0.107662 0.675585 -1.244337
2008-10-31 08:13:08 51°18.022 2°51.612 -999 0.105706 0.662822 -1.279161
2008-10-31 08:13:12 51°18.033 2°51.6 -999 0.118571 0.746996 -1.244337
2008-10-31 08:13:18 51°18.049 2°51.583 -999 0.118571 0.746996 -1.244337
2008-10-31 08:13:23 51°18.063 2°51.57 -999 0.107559 0.674374 -1.279161
2008-10-31 08:13:28 51°18.076 2°51.556 -999 0.106221 0.665383 -1.244337
2008-10-31 08:13:32 51°18.087 2°51.545 -999 0.095003 0.592353 -1.279161
2008-10-31 08:13:38 51°18.103 2°51.528 -999 0.108073 0.67804 -1.279161
2008-10-31 08:13:43 51°18.117 2°51.514 -999 0.125158 0.790367 -1.279161
2008-10-31 08:13:48 51°18.13 2°51.5 -999 0.125158 0.790367 -1.279161
2008-10-31 08:13:52 51°18.141 2°51.489 -999 0.097267 0.607201 -1.279161
2008-10-31 08:13:58 51°18.157 2°51.472 -999 0.111778 0.701908 -1.244337
2008-10-31 08:14:03 51°18.171 2°51.458 -999 0.110749 0.695261 -1.279161
2008-10-31 08:14:08 51°18.184 2°51.444 -999 0.107662 0.67509 -1.279161
2008-10-31 08:14:12 51°18.195 2°51.433 -999 0.103854 0.65016 -1.279161
2008-10-31 08:14:18 51°18.212 2°51.417 -999 0.103854 0.65016 -1.279161
2008-10-31 08:14:23 51°18.225 2°51.402 -999 0.080595 0.499198 -1.244337
2008-10-31 08:14:28 51°18.239 2°51.387 -999 0.091401 0.568962 -1.244337
2008-10-31 08:14:32 51°18.25 2°51.376 -999 0.096547 0.602375 -1.279161
2008-10-31 08:14:38 51°18.266 2°51.359 -999 0.109103 0.684397 -1.279161
2008-10-31 08:14:43 51°18.28 2°51.346 -999 0.093562 0.583177 -1.244337
2008-10-31 08:14:48 51°18.294 2°51.332 -999 0.093562 0.583177 -1.244337
2008-10-31 08:14:52 51°18.305 2°51.32 -999 0.084711 0.52587 -1.244337
2008-10-31 08:14:58 51°18.321 2°51.303 -999 0.081932 0.50789 -1.279161
2008-10-31 08:15:03 51°18.335 2°51.289 -999 0.097267 0.607213 -1.279161
2008-10-31 08:15:08 51°18.349 2°51.274 -999 0.087387 0.543199 -1.244337
2008-10-31 08:15:12 51°18.36 2°51.263 -999 0.145846 0.927508 -1.244337
2008-10-31 08:15:18 51°18.376 2°51.245 -999 0.145846 0.927508 -1.244337
2008-10-31 08:15:23 51°18.389 2°51.23 -999 0.141729 0.900195 -1.279161
2008-10-31 08:15:28 51°18.403 2°51.216 -999 0.130201 0.823485 -1.244337
2008-10-31 08:15:32 51°18.414 2°51.205 -999 0.149345 0.950818 -1.244337
2008-10-31 08:15:38 51°18.43 2°51.187 -999 0.124746 0.787185 -1.244337
2008-10-31 08:15:43 51°18.444 2°51.173 -999 0.102619 0.641881 -1.279161
2008-10-31 08:15:48 51°18.457 2°51.158 -999 0.102619 0.641881 -1.279161
2008-10-31 08:15:52 51°18.468 2°51.146 -999 0.10972 0.688399 -1.244337
2008-10-31 08:15:58 51°18.485 2°51.129 -999 0.102722 0.642727 -1.244337
2008-10-31 08:16:03 51°18.498 2°51.115 -999 0.096547 0.602337 -1.244337
2008-10-31 08:16:08 51°18.512 2°51.1 -999 0.104059 0.651314 -1.279161
2008-10-31 08:16:12 51°18.523 2°51.089 -999 0.195045 1.258826 -1.279161
2008-10-31 08:16:18 51°18.539 2°51.071 -999 0.195045 1.258826 -1.279161
2008-10-31 08:16:23 51°18.552 2°51.057 -999 0.105912 0.66342 -1.279161
2008-10-31 08:16:28 51°18.566 2°51.042 -999 0.087799 0.545601 -1.279161
2008-10-31 08:16:32 51°18.576 2°51.03 -999 0.095517 0.595895 -1.244337
2008-10-31 08:16:38 51°18.593 2°51.013 -999 0.198648 1.283586 -1.279161
2008-10-31 08:16:43 51°18.606 2°50.998 -999 0.118365 0.745546 -1.244337
2008-10-31 08:16:48 51°18.62 2°50.984 -999 0.118365 0.745546 -1.244337
2008-10-31 08:16:52 51°18.631 2°50.973 -999 0.117233 0.737707 -1.279161
2008-10-31 08:16:58 51°18.647 2°50.955 -999 0.145228 0.923507 -1.279161
2008-10-31 08:17:03 51°18.661 2°50.941 -999 0.151198 0.963315 -1.244337
2008-10-31 08:17:08 51°18.675 2°50.927 -999 0.093253 0.581233 -1.279161
2008-10-31 08:17:12 51°18.686 2°50.916 -999 0.155726 0.993651 -1.244337
2008-10-31 08:17:18 51°18.702 2°50.899 -999 0.155726 0.993651 -1.244337
2008-10-31 08:17:23 51°18.715 2°50.884 -999 0.199163 1.286572 -1.279161
2008-10-31 08:17:28 51°18.729 2°50.869 -999 0.112499 0.706916 -1.244337
2008-10-31 08:17:32 51°18.74 2°50.858 -999 0.153668 0.980203 -1.244337
2008-10-31 08:17:38 51°18.756 2°50.841 -999 0.141934 0.90185 -1.244337
2008-10-31 08:17:43 51°18.77 2°50.826 -999 0.152124 0.969935 -1.279161
2008-10-31 08:17:48 51°18.784 2°50.812 -999 0.152124 0.969935 -1.279161
2008-10-31 08:17:52 51°18.795 2°50.8 -999 0.192163 1.239622 -1.244337
2008-10-31 08:17:58 51°18.81 2°50.782 -999 0.126084 0.796672 -1.244337
2008-10-31 08:18:03 51°18.824 2°50.768 -999 0.102927 0.644475 -1.279161
2008-10-31 08:18:08 51°18.838 2°50.753 -999 0.08574 0.532841 -1.244337
2008-10-31 08:18:12 51°18.849 2°50.741 -999 0.15305 0.976256 -1.244337
2008-10-31 08:18:18 51°18.865 2°50.723 -999 0.15305 0.976256 -1.244337
2008-10-31 08:18:23 51°18.878 2°50.709 -999 0.137612 0.87331 -1.279161
2008-10-31 08:18:28 51°18.892 2°50.695 -999 0.14461 0.920126 -1.279161
2008-10-31 08:18:32 51°18.903 2°50.684 -999 0.135347 0.858516 -1.244337
2008-10-31 08:18:38 51°18.919 2°50.667 -999 0.107662 0.675613 -1.279161
2008-10-31 08:18:43 51°18.933 2°50.653 -999 0.094797 0.591682 -1.279161
2008-10-31 08:18:48 51°18.947 2°50.639 -999 0.094797 0.591682 -1.279161
2008-10-31 08:18:52 51°18.958 2°50.628 -999 0.123305 0.778606 -1.279161
2008-10-31 08:18:58 51°18.974 2°50.611 -999 0.122894 0.775659 -1.279161
2008-10-31 08:19:03 51°18.987 2°50.596 -999 0.105295 0.66017 -1.244337
2008-10-31 08:19:08 51°19.001 2°50.581 -999 0.115175 0.724888 -1.244337
2008-10-31 08:19:12 51°19.012 2°50.57 -999 0.096855 0.604636 -1.244337
2008-10-31 08:19:18 51°19.028 2°50.552 -999 0.096855 0.604636 -1.244337
2008-10-31 08:19:23 51°19.042 2°50.537 -999 0.113837 0.715657 -1.279161
2008-10-31 08:19:28 51°19.055 2°50.522 -999 0.132774 0.840831 -1.244337
2008-10-31 08:19:32 51°19.066 2°50.511 -999 0.098502 0.615433 -1.244337
2008-10-31 08:19:38 51°19.082 2°50.493 -999 0.113013 0.710205 -1.279161
2008-10-31 08:19:43 51°19.096 2°50.479 -999 0.200398 1.295713 -1.244337
2008-10-31 08:19:48 51°19.109 2°50.464 -999 0.200398 1.295713 -1.244337
2008-10-31 08:19:52 51°19.12 2°50.452 -999 0.133186 0.84372 -1.279161
2008-10-31 08:19:58 51°19.136 2°50.435 -999 0.100972 0.631813 -1.244337
2008-10-31 08:20:03 51°19.15 2°50.42 -999 0.150271 0.957971 -1.279161
2008-10-31 08:20:08 51°19.163 2°50.406 -999 0.115278 0.725641 -1.279161
2008-10-31 08:20:12 51°19.175 2°50.395 -999 0.100149 0.626585 -1.244337
2008-10-31 08:20:18 51°19.191 2°50.379 -999 0.100149 0.626585 -1.244337
2008-10-31 08:20:23 51°19.205 2°50.365 -999 0.098811 0.618104 -1.279161
2008-10-31 08:20:28 51°19.219 2°50.352 -999 0.172915 1.110891 -1.279161
2008-10-31 08:20:32 51°19.23 2°50.342 -999 0.121041 0.764043 -1.279161
2008-10-31 08:20:38 51°19.247 2°50.326 -999 0.226646 1.476392 -1.279161
2008-10-31 08:20:43 51°19.261 2°50.313 -999 0.159535 1.019879 -1.279161
2008-10-31 08:20:48 51°19.275 2°50.3 -999 0.159535 1.019879 -1.279161
2008-10-31 08:20:52 51°19.286 2°50.29 -999 0.219647 1.427988 -1.279161
2008-10-31 08:20:58 51°19.303 2°50.273 -999 0.118571 0.747356 -1.279161
2008-10-31 08:21:03 51°19.316 2°50.259 -999 0.136582 0.866651 -1.244337
2008-10-31 08:21:08 51°19.33 2°50.246 -999 0.121041 0.763867 -1.279161
2008-10-31 08:21:12 51°19.341 2°50.235 -999 0.165196 1.058134 -1.244337
2008-10-31 08:21:18 51°19.358 2°50.218 -999 0.165196 1.058134 -1.244337
2008-10-31 08:21:23 51°19.371 2°50.204 -999 0.151301 0.964733 -1.279161
2008-10-31 08:21:28 51°19.385 2°50.19 -999 0.103545 0.648727 -1.244337
2008-10-31 08:21:32 51°19.396 2°50.179 -999 0.235293 1.534969 -1.244337
2008-10-31 08:21:38 51°19.413 2°50.163 -999 0.113837 0.716121 -1.279161
2008-10-31 08:21:43 51°19.427 2°50.149 -999 0.114043 0.717745 -1.244337
2008-10-31 08:21:48 51°19.44 2°50.135 -999 0.114043 0.717745 -1.244337
2008-10-31 08:21:52 51°19.451 2°50.124 -999 0.124643 0.787794 -1.244337
2008-10-31 08:21:58 51°19.468 2°50.108 -999 0.209971 1.361737 -1.279161
2008-10-31 08:22:03 51°19.482 2°50.093 -999 0.179194 1.152382 -1.279161
2008-10-31 08:22:08 51°19.496 2°50.08 -999 0.150992 0.96285 -1.244337
2008-10-31 08:22:12 51°19.507 2°50.068 -999 0.108485 0.681251 -1.279161
2008-10-31 08:22:18 51°19.523 2°50.052 -999 0.108485 0.681251 -1.279161
2008-10-31 08:22:23 51°19.537 2°50.037 -999 0.15233 0.971721 -1.244337
2008-10-31 08:22:28 51°19.551 2°50.023 -999 0.102413 0.641341 -1.244337
2008-10-31 08:22:32 51°19.562 2°50.012 -999 0.099943 0.625216 -1.244337
2008-10-31 08:22:38 51°19.579 2°49.994 -999 0.113425 0.71352 -1.244337
2008-10-31 08:22:43 51°19.593 2°49.979 -999 0.099428 0.621807 -1.244337
2008-10-31 08:22:48 51°19.606 2°49.965 -999 0.099428 0.621807 -1.244337
2008-10-31 08:22:52 51°19.618 2°49.954 -999 0.160873 1.028817 -1.279161
2008-10-31 08:22:58 51°19.634 2°49.937 -999 0.189899 1.224642 -1.279161
2008-10-31 08:23:03 51°19.648 2°49.922 -999 0.119394 0.752656 -1.244337
2008-10-31 08:23:08 51°19.662 2°49.909 -999 0.147081 0.936335 -1.244337
2008-10-31 08:23:12 51°19.672 2°49.897 -999 0.099737 0.623821 -1.279161
2008-10-31 08:23:18 51°19.689 2°49.88 -999 0.099737 0.623821 -1.279161
2008-10-31 08:23:23 51°19.703 2°49.866 -999 0.100663 0.629785 -1.244337
2008-10-31 08:23:28 51°19.717 2°49.853 -999 0.175591 1.12747 -1.244337
2008-10-31 08:23:32 51°19.728 2°49.842 -999 0.135553 0.859468 -1.279161
2008-10-31 08:23:38 51°19.746 2°49.827 -999 0.127731 0.80775 -1.279161
2008-10-31 08:23:43 51°19.76 2°49.814 -999 0.096547 0.603017 -1.244337
2008-10-31 08:23:48 51°19.774 2°49.801 -999 0.096547 0.603017 -1.244337
2008-10-31 08:23:52 51°19.785 2°49.791 -999 0.098605 0.616464 -1.244337
2008-10-31 08:23:58 51°19.803 2°49.775 -999 0.191134 1.23352 -1.244337
2008-10-31 08:24:03 51°19.817 2°49.762 -999 0.130407 0.825784 -1.244337
2008-10-31 08:24:08 51°19.831 2°49.748 -999 0.203177 1.315893 -1.279161
2008-10-31 08:24:12 51°19.843 2°49.738 -999 0.202456 1.310591 -1.279161
2008-10-31 08:24:18 51°19.86 2°49.722 -999 0.202456 1.310591 -1.279161
2008-10-31 08:24:23 51°19.874 2°49.708 -999 0.101589 0.635977 -1.279161
2008-10-31 08:24:28 51°19.888 2°49.695 -999 0.196178 1.267402 -1.244337
2008-10-31 08:24:32 51°19.899 2°49.684 -999 0.123511 0.779966 -1.244337
2008-10-31 08:24:38 51°19.916 2°49.666 -999 0.09562 0.597213 -1.279161
2008-10-31 08:24:43 51°19.93 2°49.652 -999 0.102207 0.640144 -1.244337
2008-10-31 08:24:48 51°19.944 2°49.637 -999 0.102207 0.640144 -1.244337
2008-10-31 08:24:52 51°19.955 2°49.626 -999 0.150168 0.957182 -1.279161
2008-10-31 08:24:58 51°19.971 2°49.607 -999 0.129892 0.822165 -1.244337
2008-10-31 08:25:03 51°19.985 2°49.593 -999 0.105192 0.659469 -1.244337
2008-10-31 08:25:08 51°19.999 2°49.577 -999 0.101795 0.637215 -1.279161
2008-10-31 08:25:12 51°20.01 2°49.565 -999 0.136582 0.86645 -1.244337
2008-10-31 08:25:18 51°20.026 2°49.546 -999 0.136582 0.86645 -1.244337
2008-10-31 08:25:23 51°20.04 2°49.531 -999 0.119189 0.751331 -1.244337
2008-10-31 08:25:28 51°20.053 2°49.515 -999 0.09068 0.564846 -1.279161
2008-10-31 08:25:32 51°20.064 2°49.502 -999 0.089239 0.555469 -1.279161
2008-10-31 08:25:38 51°20.08 2°49.483 -999 0.089239 0.555492 -1.244337
2008-10-31 08:25:43 51°20.094 2°49.467 -999 0.101589 0.635871 -1.244337
2008-10-31 08:25:48 51°20.107 2°49.451 -999 0.101589 0.635871 -1.244337
2008-10-31 08:25:52 51°20.118 2°49.438 -999 0.094385 0.588906 -1.244337
2008-10-31 08:25:58 51°20.134 2°49.419 -999 0.125981 0.796226 -1.244337
2008-10-31 08:26:03 51°20.148 2°49.403 -999 0.166225 1.064521 -1.244337
2008-10-31 08:26:08 51°20.162 2°49.388 -999 0.206162 1.334995 -1.279161
2008-10-31 08:26:12 51°20.173 2°49.376 -999 0.155212 0.990664 -1.244337
2008-10-31 08:26:18 51°20.189 2°49.357 -999 0.155212 0.990664 -1.244337
2008-10-31 08:26:23 51°20.203 2°49.341 -999 0.182796 1.176583 -1.244337
2008-10-31 08:26:28 51°20.216 2°49.326 -999 0.128966 0.816029 -1.244337
2008-10-31 08:26:32 51°20.227 2°49.314 -999 0.234572 1.530591 -1.279161
2008-10-31 08:26:38 51°20.244 2°49.296 -999 0.115586 0.727734 -1.279161
2008-10-31 08:26:43 51°20.258 2°49.281 -999 0.271117 1.783365 -1.244337
2008-10-31 08:26:48 51°20.271 2°49.266 -999 0.271117 1.783365 -1.244337
2008-10-31 08:26:52 51°20.282 2°49.254 -999 0.192472 1.2424 -1.244337
2008-10-31 08:26:58 51°20.299 2°49.235 -999 0.142655 0.907049 -1.244337
2008-10-31 08:27:03 51°20.312 2°49.219 -999 0.124643 0.787579 -1.279161
2008-10-31 08:27:08 51°20.326 2°49.203 -999 0.224485 1.461328 -1.244337
2008-10-31 08:27:12 51°20.337 2°49.191 -999 0.213676 1.386811 -1.279161
2008-10-31 08:27:18 51°20.353 2°49.171 -999 0.213676 1.386811 -1.279161
2008-10-31 08:27:23 51°20.366 2°49.155 -999 0.138229 0.877508 -1.244337
2008-10-31 08:27:28 51°20.38 2°49.139 -999 0.117233 0.738511 -1.279161
2008-10-31 08:27:32 51°20.391 2°49.126 -999 0.192575 1.242837 -1.279161
2008-10-31 08:27:38 51°20.407 2°49.107 -999 0.156859 1.00193 -1.244337
2008-10-31 08:27:43 51°20.421 2°49.091 -999 0.152433 0.972615 -1.244337
2008-10-31 08:27:48 51°20.435 2°49.075 -999 0.152433 0.972615 -1.244337
2008-10-31 08:27:52 51°20.445 2°49.062 -999 0.260307 1.708333 -1.244337
2008-10-31 08:27:58 51°20.462 2°49.043 -999 0.137612 0.873493 -1.244337
2008-10-31 08:28:03 51°20.476 2°49.028 -999 0.106735 0.669798 -1.244337
2008-10-31 08:28:08 51°20.49 2°49.012 -999 0.157579 1.007121 -1.279161
2008-10-31 08:28:12 51°20.501 2°48.999 -999 0.128349 0.812145 -1.244337
2008-10-31 08:28:18 51°20.517 2°48.981 -999 0.128349 0.812145 -1.244337
2008-10-31 08:28:23 51°20.531 2°48.965 -999 0.21522 1.397817 -1.244337
2008-10-31 08:28:28 51°20.545 2°48.949 -999 0.108485 0.681251 -1.244337
2008-10-31 08:28:32 51°20.556 2°48.936 -999 0.194736 1.258135 -1.279161
2008-10-31 08:28:38 51°20.573 2°48.917 -999 0.205956 1.334605 -1.244337
2008-10-31 08:28:43 51°20.587 2°48.901 -999 0.186914 1.205058 -1.279161
2008-10-31 08:28:48 51°20.6 2°48.886 -999 0.186914 1.205058 -1.279161
2008-10-31 08:28:52 51°20.611 2°48.873 -999 0.211618 1.373314 -1.279161
2008-10-31 08:28:58 51°20.628 2°48.854 -999 0.145537 0.926579 -1.244337
2008-10-31 08:29:03 51°20.641 2°48.838 -999 0.133495 0.846427 -1.244337
2008-10-31 08:29:08 51°20.655 2°48.823 -999 0.217176 1.411478 -1.279161
2008-10-31 08:29:12 51°20.666 2°48.81 -999 0.189487 1.222751 -1.279161
2008-10-31 08:29:18 51°20.682 2°48.791 -999 0.189487 1.222751 -1.279161
2008-10-31 08:29:23 51°20.696 2°48.775 -999 0.14883 0.948639 -1.279161
2008-10-31 08:29:28 51°20.71 2°48.759 -999 0.103545 0.648985 -1.279161
2008-10-31 08:29:32 51°20.721 2°48.747 -999 0.12382 0.782334 -1.244337
2008-10-31 08:29:38 51°20.738 2°48.728 -999 0.212853 1.381733 -1.244337
2008-10-31 08:29:43 51°20.751 2°48.712 -999 0.246307 1.61153 -1.279161
2008-10-31 08:29:48 51°20.765 2°48.696 -999 0.246307 1.61153 -1.279161
2008-10-31 08:29:52 51°20.776 2°48.684 -999 0.125776 0.795065 -1.279161
2008-10-31 08:29:58 51°20.792 2°48.666 -999 0.145228 0.92444 -1.244337
2008-10-31 08:30:03 51°20.806 2°48.65 -999 0.209147 1.356398 -1.279161
2008-10-31 08:30:08 51°20.82 2°48.634 -999 0.127628 0.807425 -1.244337
2008-10-31 08:30:12 51°20.831 2°48.622 -999 0.178473 1.147971 -1.279161
2008-10-31 08:30:18 51°20.847 2°48.603 -999 0.178473 1.147971 -1.279161
2008-10-31 08:30:23 51°20.861 2°48.587 -999 0.101898 0.63822 -1.244337
2008-10-31 08:30:28 51°20.875 2°48.571 -999 0.133392 0.845761 -1.279161
2008-10-31 08:30:32 51°20.886 2°48.558 -999 0.109823 0.690142 -1.279161
2008-10-31 08:30:38 51°20.902 2°48.539 -999 0.132363 0.838876 -1.279161
2008-10-31 08:30:43 51°20.916 2°48.524 -999 0.133804 0.848352 -1.244337
2008-10-31 08:30:48 51°20.931 2°48.509 -999 0.133804 0.848352 -1.244337
2008-10-31 08:30:52 51°20.942 2°48.498 -999 0.233131 1.52067 -1.279161
2008-10-31 08:30:58 51°20.959 2°48.48 -999 0.167666 1.074896 -1.244337
2008-10-31 08:31:03 51°20.973 2°48.465 -999 0.100972 0.63213 -1.244337
2008-10-31 08:31:08 51°20.987 2°48.449 -999 0.127319 0.805415 -1.279161
2008-10-31 08:31:12 51°20.998 2°48.437 -999 0.128246 0.811582 -1.279161
2008-10-31 08:31:18 51°21.015 2°48.419 -999 0.128246 0.811582 -1.279161
2008-10-31 08:31:23 51°21.029 2°48.403 -999 0.175283 1.126216 -1.279161
2008-10-31 08:31:28 51°21.043 2°48.387 -999 0.11641 0.733368 -1.279161
2008-10-31 08:31:32 51°21.054 2°48.375 -999 0.139979 0.889449 -1.279161
2008-10-31 08:31:38 51°21.07 2°48.356 -999 0.172401 1.10667 -1.279161
2008-10-31 08:31:43 51°21.084 2°48.34 -999 0.144508 0.919342 -1.279161
2008-10-31 08:31:48 51°21.098 2°48.325 -999 0.144508 0.919342 -1.279161
2008-10-31 08:31:53 51°21.112 2°48.31 -999 0.213573 1.386429 -1.279161
2008-10-31 08:31:58 51°21.126 2°48.295 -999 0.11888 0.749642 -1.244337
2008-10-31 08:32:03 51°21.14 2°48.279 -999 0.177753 1.143099 -1.279161
2008-10-31 08:32:08 51°21.154 2°48.264 -999 0.128143 0.810952 -1.279161
2008-10-31 08:32:13 51°21.167 2°48.247 -999 0.14986 0.95544 -1.279161
2008-10-31 08:32:18 51°21.181 2°48.233 -999 0.14986 0.95544 -1.279161
2008-10-31 08:32:23 51°21.195 2°48.217 -999 0.221191 1.438604 -1.279161
2008-10-31 08:32:28 51°21.209 2°48.203 -999 0.131128 0.830543 -1.279161
2008-10-31 08:32:32 51°21.22 2°48.19 -999 0.168078 1.077782 -1.244337
2008-10-31 08:32:38 51°21.237 2°48.173 -999 0.212338 1.37862 -1.279161
2008-10-31 08:32:43 51°21.25 2°48.157 -999 0.114454 0.720589 -1.279161
2008-10-31 08:32:48 51°21.264 2°48.143 -999 0.114454 0.720589 -1.279161
2008-10-31 08:32:52 51°21.276 2°48.13 -999 0.10231 0.640884 -1.244337
2008-10-31 08:32:58 51°21.292 2°48.112 -999 0.099222 0.620815 -1.244337
2008-10-31 08:33:03 51°21.306 2°48.097 -999 0.118159 0.745144 -1.279161
2008-10-31 08:33:08 51°21.32 2°48.082 -999 0.177238 1.140005 -1.279161
2008-10-31 08:33:12 51°21.331 2°48.069 -999 0.111676 0.702497 -1.279161
2008-10-31 08:33:18 51°21.348 2°48.051 -999 0.111676 0.702497 -1.279161
2008-10-31 08:33:23 51°21.362 2°48.035 -999 0.115586 0.727871 -1.244337
2008-10-31 08:33:28 51°21.377 2°48.021 -999 0.160255 1.024995 -1.244337
2008-10-31 08:33:32 51°21.388 2°48.008 -999 0.261852 1.719371 -1.279161
2008-10-31 08:33:38 51°21.405 2°47.99 -999 0.110646 0.695459 -1.279161
2008-10-31 08:33:43 51°21.418 2°47.975 -999 0.201324 1.303011 -1.279161
2008-10-31 08:33:48 51°21.432 2°47.96 -999 0.201324 1.303011 -1.279161
2008-10-31 08:33:53 51°21.446 2°47.945 -999 0.112293 0.706215 -1.244337
2008-10-31 08:33:58 51°21.46 2°47.93 -999 0.112499 0.707523 -1.279161
2008-10-31 08:34:03 51°21.474 2°47.914 -999 0.155006 0.989661 -1.279161
2008-10-31 08:34:08 51°21.488 2°47.899 -999 0.100972 0.632024 -1.279161
2008-10-31 08:34:13 51°21.502 2°47.883 -999 0.111573 0.701439 -1.279161
2008-10-31 08:34:18 51°21.516 2°47.868 -999 0.111573 0.701439 -1.279161
2008-10-31 08:34:23 51°21.53 2°47.853 -999 0.138641 0.880395 -1.279161
2008-10-31 08:34:28 51°21.544 2°47.837 -999 0.173739 1.115557 -1.244337
2008-10-31 08:34:32 51°21.555 2°47.825 -999 0.139876 0.888577 -1.244337
2008-10-31 08:34:38 51°21.572 2°47.806 -999 0.111264 0.699265 -1.279161
2008-10-31 08:34:43 51°21.586 2°47.791 -999 0.116924 0.736602 -1.244337
2008-10-31 08:34:48 51°21.6 2°47.776 -999 0.116924 0.736602 -1.244337
2008-10-31 08:34:52 51°21.612 2°47.764 -999 0.205339 1.330586 -1.279161
2008-10-31 08:34:58 51°21.628 2°47.746 -999 0.115381 0.726532 -1.279161
2008-10-31 08:35:03 51°21.642 2°47.732 -999 0.231587 1.510333 -1.244337
2008-10-31 08:35:08 51°21.656 2°47.717 -999 0.157888 1.009001 -1.244337
2008-10-31 08:35:12 51°21.668 2°47.706 -999 0.110338 0.693346 -1.279161
2008-10-31 08:35:18 51°21.684 2°47.688 -999 0.110338 0.693346 -1.279161
2008-10-31 08:35:23 51°21.699 2°47.674 -999 0.174665 1.122093 -1.279161
2008-10-31 08:35:28 51°21.713 2°47.661 -999 0.158917 1.015949 -1.279161
2008-10-31 08:35:32 51°21.725 2°47.649 -999 0.120938 0.763076 -1.244337
2008-10-31 08:35:38 51°21.742 2°47.633 -999 0.125364 0.792259 -1.279161
2008-10-31 08:35:43 51°21.756 2°47.619 -999 0.145331 0.924854 -1.279161
2008-10-31 08:35:48 51°21.77 2°47.605 -999 0.145331 0.924854 -1.279161
2008-10-31 08:35:52 51°21.782 2°47.594 -999 0.127114 0.803883 -1.244337
2008-10-31 08:35:58 51°21.799 2°47.577 -999 0.14883 0.948339 -1.244337
2008-10-31 08:36:03 51°21.813 2°47.564 -999 0.13967 0.887281 -1.279161
2008-10-31 08:36:08 51°21.828 2°47.551 -999 0.129275 0.818195 -1.244337
2008-10-31 08:36:12 51°21.839 2°47.541 -999 0.110749 0.695945 -1.279161
2008-10-31 08:36:18 51°21.856 2°47.526 -999 0.110749 0.695945 -1.279161
2008-10-31 08:36:23 51°21.871 2°47.514 -999 0.17765 1.142066 -1.279161
2008-10-31 08:36:28 51°21.886 2°47.503 -999 0.099531 0.622465 -1.244337
2008-10-31 08:36:32 51°21.897 2°47.493 -999 0.189075 1.219158 -1.279161
2008-10-31 08:36:38 51°21.915 2°47.48 -999 0.259484 1.702334 -1.279161
2008-10-31 08:36:43 51°21.93 2°47.468 -999 0.164681 1.054517 -1.244337
2008-10-31 08:36:48 51°21.945 2°47.457 -999 0.164681 1.054517 -1.244337
2008-10-31 08:36:52 51°21.956 2°47.448 -999 0.112087 0.70473 -1.279161
2008-10-31 08:36:58 51°21.974 2°47.435 -999 0.222632 1.448397 -1.279161
2008-10-31 08:37:03 51°21.989 2°47.424 -999 0.138435 0.878988 -1.279161
2008-10-31 08:37:08 51°22.003 2°47.413 -999 0.190413 1.22855 -1.279161
2008-10-31 08:37:12 51°22.015 2°47.404 -999 0.101178 0.633382 -1.244337
2008-10-31 08:37:18 51°22.032 2°47.39 -999 0.101178 0.633382 -1.244337
2008-10-31 08:37:23 51°22.047 2°47.379 -999 0.138538 0.879691 -1.244337
2008-10-31 08:37:28 51°22.062 2°47.367 -999 0.155418 0.992419 -1.279161
2008-10-31 08:37:32 51°22.074 2°47.359 -999 0.118983 0.750053 -1.279161
2008-10-31 08:37:38 51°22.091 2°47.345 -999 0.221602 1.441001 -1.244337
2008-10-31 08:37:43 51°22.106 2°47.335 -999 0.124952 0.789454 -1.244337
2008-10-31 08:37:48 51°22.121 2°47.324 -999 0.124952 0.789454 -1.244337
2008-10-31 08:37:52 51°22.133 2°47.315 -999 0.148007 0.942897 -1.279161
2008-10-31 08:37:58 51°22.15 2°47.303 -999 0.116307 0.732813 -1.279161
2008-10-31 08:38:03 51°22.165 2°47.292 -999 0.125055 0.790599 -1.279161
2008-10-31 08:38:08 51°22.18 2°47.281 -999 0.229117 1.493593 -1.279161
2008-10-31 08:38:12 51°22.191 2°47.272 -999 0.159123 1.017438 -1.244337
2008-10-31 08:38:18 51°22.209 2°47.261 -999 0.159123 1.017438 -1.244337
2008-10-31 08:38:23 51°22.224 2°47.25 -999 0.125467 0.793056 -1.279161
2008-10-31 08:38:28 51°22.238 2°47.239 -999 0.158608 1.013664 -1.279161
2008-10-31 08:38:32 51°22.25 2°47.231 -999 0.130716 0.827587 -1.279161
2008-10-31 08:38:38 51°22.267 2°47.218 -999 0.118262 0.745275 -1.244337
2008-10-31 08:38:43 51°22.281 2°47.207 -999 0.114454 0.720377 -1.244337
2008-10-31 08:38:48 51°22.296 2°47.196 -999 0.114454 0.720377 -1.244337
2008-10-31 08:38:52 51°22.307 2°47.186 -999 0.137818 0.874973 -1.244337
2008-10-31 08:38:58 51°22.324 2°47.173 -999 0.177135 1.138252 -1.244337
2008-10-31 08:39:03 51°22.338 2°47.162 -999 0.130819 0.828461 -1.279161
2008-10-31 08:39:08 51°22.353 2°47.151 -999 0.221602 1.44155 -1.244337
2008-10-31 08:39:12 51°22.364 2°47.142 -999 0.114866 0.722949 -1.279161
2008-10-31 08:39:18 51°22.381 2°47.13 -999 0.114866 0.722949 -1.279161
2008-10-31 08:39:23 51°22.395 2°47.119 -999 0.158402 1.012411 -1.279161
2008-10-31 08:39:28 51°22.41 2°47.109 -999 0.163137 1.044402 -1.244337
2008-10-31 08:39:32 51°22.422 2°47.1 -999 0.213985 1.389275 -1.279161
2008-10-31 08:39:38 51°22.439 2°47.088 -999 0.145228 0.924206 -1.244337
2008-10-31 08:39:43 51°22.453 2°47.077 -999 0.264322 1.736191 -1.244337
2008-10-31 08:39:48 51°22.468 2°47.067 -999 0.264322 1.736191 -1.244337
2008-10-31 08:39:52 51°22.48 2°47.059 -999 0.130098 0.823668 -1.279161
2008-10-31 08:39:58 51°22.497 2°47.046 -999 0.087387 0.543766 -1.244337
2008-10-31 08:40:03 51°22.511 2°47.034 -999 0.156138 0.997331 -1.279161
2008-10-31 08:40:08 51°22.526 2°47.023 -999 0.139156 0.883856 -1.279161
2008-10-31 08:40:12 51°22.537 2°47.015 -999 0.203795 1.319549 -1.279161
2008-10-31 08:40:18 51°22.555 2°47.002 -999 0.203795 1.319549 -1.279161
2008-10-31 08:40:23 51°22.569 2°46.991 -999 0.124232 0.785055 -1.279161
2008-10-31 08:40:28 51°22.583 2°46.98 -999 0.155418 0.992733 -1.279161
2008-10-31 08:40:32 51°22.595 2°46.972 -999 0.098914 0.618723 -1.279161
2008-10-31 08:40:38 51°22.612 2°46.959 -999 0.100869 0.631366 -1.244337
2008-10-31 08:40:43 51°22.626 2°46.948 -999 0.213265 1.38417 -1.244337
2008-10-31 08:40:48 51°22.641 2°46.937 -999 0.213265 1.38417 -1.244337
2008-10-31 08:40:52 51°22.652 2°46.928 -999 0.125158 0.790831 -1.279161
2008-10-31 08:40:58 51°22.669 2°46.914 -999 0.09315 0.581062 -1.279161
2008-10-31 08:41:03 51°22.683 2°46.903 -999 0.138332 0.878414 -1.244337
2008-10-31 08:41:08 51°22.698 2°46.892 -999 0.101384 0.634673 -1.279161
2008-10-31 08:41:12 51°22.709 2°46.883 -999 0.143478 0.912499 -1.279161
2008-10-31 08:41:18 51°22.726 2°46.869 -999 0.143478 0.912499 -1.279161
2008-10-31 08:41:23 51°22.741 2°46.859 -999 0.130407 0.825836 -1.244337
2008-10-31 08:41:28 51°22.755 2°46.848 -999 0.222529 1.447538 -1.244337
2008-10-31 08:41:32 51°22.767 2°46.84 -999 0.238278 1.555825 -1.279161
2008-10-31 08:41:38 51°22.784 2°46.827 -999 0.104265 0.653519 -1.279161
2008-10-31 08:41:43 51°22.798 2°46.816 -999 0.133804 0.848263 -1.244337
2008-10-31 08:41:48 51°22.812 2°46.804 -999 0.133804 0.848263 -1.244337
2008-10-31 08:41:52 51°22.824 2°46.796 -999 0.113425 0.7137 -1.244337
2008-10-31 08:41:58 51°22.841 2°46.782 -999 0.119292 0.752451 -1.244337
2008-10-31 08:42:03 51°22.855 2°46.771 -999 0.117542 0.740886 -1.279161
2008-10-31 08:42:08 51°22.87 2°46.76 -999 0.143375 0.911966 -1.244337
2008-10-31 08:42:12 51°22.881 2°46.751 -999 0.262366 1.72236 -1.279161
2008-10-31 08:42:18 51°22.898 2°46.737 -999 0.262366 1.72236 -1.279161
2008-10-31 08:42:23 51°22.913 2°46.727 -999 0.166019 1.063495 -1.279161
2008-10-31 08:42:28 51°22.927 2°46.715 -999 0.181973 1.171158 -1.279161
2008-10-31 08:42:32 51°22.939 2°46.707 -999 0.170342 1.092628 -1.279161
2008-10-31 08:42:38 51°22.956 2°46.694 -999 0.114351 0.71964 -1.244337
2008-10-31 08:42:43 51°22.971 2°46.683 -999 0.181561 1.168495 -1.244337
2008-10-31 08:42:48 51°22.986 2°46.672 -999 0.181561 1.168495 -1.244337
2008-10-31 08:42:52 51°22.997 2°46.663 -999 0.140391 0.892059 -1.244337
2008-10-31 08:42:58 51°23.015 2°46.65 -999 0.190722 1.230594 -1.244337
2008-10-31 08:43:03 51°23.029 2°46.639 -999 0.179091 1.151784 -1.279161
2008-10-31 08:43:08 51°23.044 2°46.628 -999 0.138641 0.88045 -1.279161
2008-10-31 08:43:12 51°23.055 2°46.619 -999 0.110235 0.692598 -1.279161
2008-10-31 08:43:18 51°23.073 2°46.606 -999 0.110235 0.692598 -1.279161
2008-10-31 08:43:23 51°23.087 2°46.595 -999 0.106632 0.668998 -1.244337
2008-10-31 08:43:28 51°23.102 2°46.585 -999 0.106632 0.669012 -1.244337
2008-10-31 08:43:32 51°23.114 2°46.577 -999 0.210074 1.362297 -1.244337
2008-10-31 08:43:38 51°23.131 2°46.564 -999 0.132671 0.840731 -1.279161
2008-10-31 08:43:43 51°23.146 2°46.553 -999 0.135347 0.858696 -1.244337
2008-10-31 08:43:48 51°23.16 2°46.543 -999 0.135347 0.858696 -1.244337
2008-10-31 08:43:53 51°23.175 2°46.532 -999 0.091504 0.570545 -1.244337
2008-10-31 08:43:58 51°23.189 2°46.521 -999 0.235293 1.536073 -1.244337
2008-10-31 08:44:03 51°23.204 2°46.51 -999 0.140596 0.89358 -1.244337
2008-10-31 08:44:08 51°23.218 2°46.498 -999 0.204515 1.324323 -1.279161
2008-10-31 08:44:12 51°23.23 2°46.49 -999 0.181767 1.169962 -1.279161
2008-10-31 08:44:18 51°23.247 2°46.476 -999 0.181767 1.169962 -1.279161
2008-10-31 08:44:23 51°23.261 2°46.465 -999 0.140288 0.891299 -1.244337
2008-10-31 08:44:28 51°23.276 2°46.453 -999 0.204515 1.324519 -1.244337
2008-10-31 08:44:32 51°23.287 2°46.445 -999 0.127628 0.807289 -1.279161
2008-10-31 08:44:38 51°23.305 2°46.431 -999 0.143478 0.912652 -1.244337
2008-10-31 08:44:43 51°23.319 2°46.42 -999 0.155418 0.992461 -1.279161
2008-10-31 08:44:48 51°23.333 2°46.408 -999 0.155418 0.992461 -1.279161
2008-10-31 08:44:53 51°23.347 2°46.397 -999 0.144096 0.916674 -1.279161
2008-10-31 08:44:58 51°23.361 2°46.385 -999 0.177444 1.140627 -1.244337
2008-10-31 08:45:03 51°23.376 2°46.373 -999 0.116821 0.735971 -1.244337
2008-10-31 08:45:08 51°23.39 2°46.362 -999 0.20925 1.356814 -1.244337
2008-10-31 08:45:12 51°23.402 2°46.353 -999 0.1231 0.777279 -1.244337
2008-10-31 08:45:18 51°23.419 2°46.34 -999 0.1231 0.777279 -1.244337
2008-10-31 08:45:23 51°23.433 2°46.329 -999 0.156035 0.996495 -1.244337
2008-10-31 08:45:28 51°23.448 2°46.318 -999 0.168283 1.078851 -1.244337
2008-10-31 08:45:32 51°23.46 2°46.31 -999 0.119292 0.752199 -1.244337
2008-10-31 08:45:38 51°23.477 2°46.297 -999 0.162314 1.038779 -1.244337
2008-10-31 08:45:43 51°23.491 2°46.287 -999 0.14461 0.920184 -1.279161
2008-10-31 08:45:48 51°23.506 2°46.277 -999 0.14461 0.920184 -1.279161
2008-10-31 08:45:52 51°23.518 2°46.269 -999 0.112293 0.706097 -1.279161
2008-10-31 08:45:58 51°23.535 2°46.256 -999 0.171268 1.099034 -1.279161
2008-10-31 08:46:03 51°23.55 2°46.245 -999 0.127114 0.804052 -1.244337
2008-10-31 08:46:08 51°23.564 2°46.234 -999 0.353374 2.361024 -1.279161
2008-10-31 08:46:12 51°23.575 2°46.225 -999 0.116101 0.731013 -1.244337
2008-10-31 08:46:18 51°23.592 2°46.212 -999 0.116101 0.731013 -1.244337
2008-10-31 08:46:23 51°23.607 2°46.201 -999 0.181253 1.16638 -1.279161
2008-10-31 08:46:28 51°23.621 2°46.19 -999 0.24044 1.570628 -1.279161
2008-10-31 08:46:32 51°23.633 2°46.182 -999 0.170651 1.094617 -1.244337
2008-10-31 08:46:38 51°23.65 2°46.167 -999 0.179297 1.153176 -1.279161
2008-10-31 08:46:43 51°23.664 2°46.157 -999 0.112808 0.709522 -1.279161
2008-10-31 08:46:48 51°23.678 2°46.145 -999 0.112808 0.709522 -1.279161
2008-10-31 08:46:52 51°23.69 2°46.136 -999 0.099737 0.623912 -1.279161
2008-10-31 08:46:58 51°23.707 2°46.122 -999 0.130613 0.826974 -1.244337
2008-10-31 08:47:03 51°23.722 2°46.111 -999 0.168901 1.082828 -1.244337
2008-10-31 08:47:08 51°23.736 2°46.099 -999 0.109514 0.687857 -1.244337
2008-10-31 08:47:12 51°23.748 2°46.09 -999 0.160667 1.027587 -1.244337
2008-10-31 08:47:18 51°23.765 2°46.076 -999 0.160667 1.027587 -1.244337
2008-10-31 08:47:23 51°23.779 2°46.064 -999 0.219338 1.42569 -1.244337
2008-10-31 08:47:28 51°23.794 2°46.054 -999 0.118468 0.746709 -1.279161
2008-10-31 08:47:32 51°23.805 2°46.045 -999 0.257322 1.687459 -1.244337
2008-10-31 08:47:38 51°23.823 2°46.032 -999 0.133392 0.845423 -1.244337
2008-10-31 08:47:43 51°23.837 2°46.02 -999 0.124746 0.788209 -1.279161
2008-10-31 08:47:48 51°23.851 2°46.008 -999 0.124746 0.788209 -1.279161
2008-10-31 08:47:52 51°23.863 2°45.998 -999 0.108794 0.683404 -1.244337
2008-10-31 08:47:58 51°23.88 2°45.984 -999 0.095826 0.598678 -1.279161
2008-10-31 08:48:03 51°23.895 2°45.971 -999 0.163549 1.047214 -1.279161
2008-10-31 08:48:08 51°23.909 2°45.959 -999 0.088107 0.548398 -1.244337
2008-10-31 08:48:12 51°23.92 2°45.95 -999 0.188561 1.215924 -1.279161
2008-10-31 08:48:18 51°23.938 2°45.935 -999 0.188561 1.215924 -1.279161
2008-10-31 08:48:23 51°23.952 2°45.925 -999 0.122276 0.771939 -1.279161
2008-10-31 08:48:28 51°23.967 2°45.916 -999 0.143993 0.916026 -1.279161
2008-10-31 08:48:32 51°23.978 2°45.91 -999 0.154697 0.987571 -1.244337
2008-10-31 08:48:38 51°23.996 2°45.903 -999 0.144096 0.91677 -1.279161
2008-10-31 08:48:43 51°24.011 2°45.897 -999 0.116719 0.735231 -1.279161
2008-10-31 08:48:48 51°24.026 2°45.893 -999 0.116719 0.735231 -1.279161
2008-10-31 08:48:52 51°24.038 2°45.891 -999 0.156035 0.996474 -1.279161
2008-10-31 08:48:58 51°24.056 2°45.89 -999 0.095517 0.596393 -1.244337
2008-10-31 08:49:03 51°24.07 2°45.89 -999 0.32815 2.18253 -1.244337
2008-10-31 08:49:08 51°24.084 2°45.894 -999 0.168283 1.078714 -1.279161
2008-10-31 08:49:12 51°24.096 2°45.896 -999 0.312707 2.074102 -1.244337
2008-10-31 08:49:18 51°24.112 2°45.902 -999 0.312707 2.074102 -1.244337
2008-10-31 08:49:23 51°24.126 2°45.907 -999 0.285838 1.885545 -1.244337
2008-10-31 08:49:28 51°24.139 2°45.914 -999 0.13298 0.842585 -1.279161
2008-10-31 08:49:32 51°24.15 2°45.919 -999 0.236734 1.544925 -1.279161
2008-10-31 08:49:38 51°24.166 2°45.928 -999 0.258866 1.698053 -1.279161
2008-10-31 08:49:43 51°24.179 2°45.936 -999 0.180841 1.16357 -1.279161
2008-10-31 08:49:48 51°24.192 2°45.944 -999 0.180841 1.16357 -1.279161
2008-10-31 08:49:52 51°24.202 2°45.951 -999 0.104677 0.656212 -1.279161
2008-10-31 08:49:58 51°24.218 2°45.961 -999 0.300045 1.985173 -1.279161
2008-10-31 08:50:03 51°24.229 2°45.973 -999 0.130922 0.829108 -1.279161
2008-10-31 08:50:08 51°24.242 2°45.984 -999 0.213367 1.385079 -1.244337
2008-10-31 08:50:12 51°24.251 2°45.994 -999 0.235499 1.537004 -1.244337
2008-10-31 08:50:18 51°24.265 2°46.008 -999 0.235499 1.537004 -1.244337
2008-10-31 08:50:23 51°24.275 2°46.022 -999 0.16077 1.028256 -1.244337
2008-10-31 08:50:28 51°24.287 2°46.035 -999 0.144302 0.917815 -1.244337
2008-10-31 08:50:32 51°24.295 2°46.045 -999 0.141729 0.900725 -1.244337
2008-10-31 08:50:38 51°24.308 2°46.062 -999 0.132054 0.836493 -1.279161
2008-10-31 08:50:43 51°24.319 2°46.076 -999 0.094077 0.586985 -1.279161
2008-10-31 08:50:48 51°24.329 2°46.09 -999 0.094077 0.586985 -1.279161
2008-10-31 08:50:52 51°24.338 2°46.101 -999 0.14636 0.931723 -1.279161
2008-10-31 08:50:58 51°24.351 2°46.118 -999 0.145846 0.928386 -1.244337
2008-10-31 08:51:03 51°24.361 2°46.132 -999 0.105603 0.662273 -1.244337
2008-10-31 08:51:08 51°24.372 2°46.146 -999 0.118159 0.744722 -1.244337
2008-10-31 08:51:12 51°24.381 2°46.157 -999 0.111881 0.703363 -1.279161
2008-10-31 08:51:18 51°24.393 2°46.174 -999 0.111881 0.703363 -1.279161
2008-10-31 08:51:23 51°24.404 2°46.189 -999 0.113837 0.716287 -1.279161
2008-10-31 08:51:28 51°24.414 2°46.203 -999 0.100972 0.631932 -1.279161
2008-10-31 08:51:32 51°24.423 2°46.215 -999 0.11713 0.737865 -1.244337
2008-10-31 08:51:38 51°24.435 2°46.232 -999 0.136377 0.86541 -1.244337
2008-10-31 08:51:43 51°24.446 2°46.247 -999 0.100457 0.628705 -1.244337
2008-10-31 08:51:48 51°24.456 2°46.261 -999 0.100457 0.628705 -1.244337
2008-10-31 08:51:52 51°24.465 2°46.273 -999 0.0949 0.592364 -1.244337
2008-10-31 08:51:58 51°24.478 2°46.289 -999 0.142449 0.905562 -1.244337
2008-10-31 08:52:03 51°24.488 2°46.304 -999 0.139979 0.889206 -1.279161
2008-10-31 08:52:08 51°24.499 2°46.317 -999 0.098914 0.618464 -1.244337
2008-10-31 08:52:12 51°24.508 2°46.329 -999 0.100869 0.631128 -1.279161
2008-10-31 08:52:18 51°24.521 2°46.345 -999 0.100869 0.631128 -1.279161
2008-10-31 08:52:23 51°24.532 2°46.359 -999 0.163549 1.04664 -1.244337
2008-10-31 08:52:28 51°24.543 2°46.373 -999 0.118468 0.74674 -1.279161
2008-10-31 08:52:33 51°24.553 2°46.387 -999 0.120321 0.758779 -1.244337
2008-10-31 08:52:38 51°24.564 2°46.401 -999 0.183414 1.18054 -1.244337
2008-10-31 08:52:43 51°24.574 2°46.415 -999 0.130304 0.824755 -1.279161
2008-10-31 08:52:48 51°24.585 2°46.429 -999 0.130304 0.824755 -1.279161
2008-10-31 08:52:52 51°24.593 2°46.441 -999 0.166225 1.064633 -1.279161
2008-10-31 08:52:58 51°24.606 2°46.458 -999 0.129172 0.817427 -1.279161
2008-10-31 08:53:03 51°24.616 2°46.472 -999 0.094077 0.587083 -1.279161
2008-10-31 08:53:08 51°24.627 2°46.487 -999 0.129584 0.820137 -1.244337
2008-10-31 08:53:12 51°24.635 2°46.498 -999 0.112396 0.706728 -1.244337
2008-10-31 08:53:18 51°24.648 2°46.516 -999 0.112396 0.706728 -1.244337
2008-10-31 08:53:23 51°24.657 2°46.531 -999 0.11713 0.737834 -1.279161
2008-10-31 08:53:28 51°24.667 2°46.547 -999 0.081418 0.504984 -1.244337
2008-10-31 08:53:32 51°24.675 2°46.559 -999 0.07936 0.491649 -1.279161
2008-10-31 08:53:38 51°24.687 2°46.578 -999 0.094179 0.587482 -1.279161
2008-10-31 08:53:43 51°24.696 2°46.594 -999 0.093459 0.582947 -1.279161
2008-10-31 08:53:48 51°24.706 2°46.61 -999 0.093459 0.582947 -1.279161
2008-10-31 08:53:52 51°24.714 2°46.623 -999 0.104471 0.654893 -1.279161
2008-10-31 08:53:58 51°24.725 2°46.642 -999 0.092121 0.57446 -1.244337
2008-10-31 08:54:03 51°24.735 2°46.658 -999 0.079668 0.493853 -1.279161
2008-10-31 08:54:08 51°24.744 2°46.674 -999 0.164372 1.052507 -1.244337
2008-10-31 08:54:12 51°24.752 2°46.686 -999 0.090269 0.562316 -1.244337
2008-10-31 08:54:18 51°24.763 2°46.705 -999 0.090269 0.562316 -1.244337
2008-10-31 08:54:23 51°24.772 2°46.721 -999 0.122482 0.77312 -1.244337
2008-10-31 08:54:28 51°24.781 2°46.739 -999 0.096752 0.604357 -1.244337
2008-10-31 08:54:32 51°24.789 2°46.751 -999 0.093665 0.58426 -1.279161
2008-10-31 08:54:38 51°24.8 2°46.772 -999 0.110029 0.691117 -1.244337
2008-10-31 08:54:43 51°24.809 2°46.788 -999 0.099531 0.622608 -1.279161
2008-10-31 08:54:48 51°24.817 2°46.806 -999 0.099531 0.622608 -1.279161
2008-10-31 08:54:52 51°24.824 2°46.82 -999 0.103339 0.647476 -1.279161
2008-10-31 08:54:58 51°24.835 2°46.841 -999 0.081418 0.505099 -1.279161
2008-10-31 08:55:03 51°24.843 2°46.858 -999 0.104986 0.658301 -1.244337
2008-10-31 08:55:08 51°24.852 2°46.875 -999 0.085329 0.530367 -1.279161
2008-10-31 08:55:12 51°24.859 2°46.89 -999 0.08255 0.512372 -1.279161
2008-10-31 08:55:18 51°24.869 2°46.91 -999 0.08255 0.512372 -1.279161
2008-10-31 08:55:23 51°24.878 2°46.928 -999 0.084402 0.524313 -1.244337
2008-10-31 08:55:28 51°24.886 2°46.945 -999 0.08821 0.548916 -1.244337
2008-10-31 08:55:32 51°24.894 2°46.959 -999 0.105706 0.662878 -1.244337
2008-10-31 08:55:38 51°24.904 2°46.98 -999 0.089651 0.558335 -1.279161
2008-10-31 08:55:43 51°24.913 2°46.997 -999 0.083682 0.519692 -1.244337
2008-10-31 08:55:48 51°24.922 2°47.014 -999 0.083682 0.519692 -1.244337
2008-10-31 08:55:52 51°24.929 2°47.028 -999 0.084917 0.527617 -1.244337
2008-10-31 08:55:58 51°24.94 2°47.048 -999 0.082241 0.510283 -1.279161
2008-10-31 08:56:03 51°24.948 2°47.066 -999 0.097164 0.607101 -1.244337
2008-10-31 08:56:08 51°24.957 2°47.083 -999 0.095517 0.596356 -1.279161
2008-10-31 08:56:12 51°24.964 2°47.097 -999 0.086975 0.540897 -1.244337
2008-10-31 08:56:18 51°24.975 2°47.118 -999 0.086975 0.540897 -1.244337
2008-10-31 08:56:23 51°24.984 2°47.136 -999 0.081418 0.50491 -1.279161
2008-10-31 08:56:28 51°24.992 2°47.153 -999 0.08255 0.512201 -1.279161
2008-10-31 08:56:32 51°24.999 2°47.167 -999 0.088313 0.549491 -1.244337
2008-10-31 08:56:38 51°25.01 2°47.188 -999 0.090269 0.562187 -1.244337
2008-10-31 08:56:43 51°25.018 2°47.205 -999 0.10478 0.656803 -1.279161
2008-10-31 08:56:48 51°25.027 2°47.223 -999 0.10478 0.656803 -1.279161
2008-10-31 08:56:52 51°25.034 2°47.237 -999 0.08574 0.532929 -1.244337
2008-10-31 08:56:58 51°25.044 2°47.257 -999 0.087078 0.541574 -1.279161
2008-10-31 08:57:03 51°25.053 2°47.274 -999 0.092944 0.579652 -1.279161
2008-10-31 08:57:08 51°25.062 2°47.292 -999 0.074728 0.461997 -1.279161
2008-10-31 08:57:12 51°25.069 2°47.305 -999 0.078948 0.489142 -1.279161
2008-10-31 08:57:18 51°25.08 2°47.326 -999 0.078948 0.489142 -1.279161
2008-10-31 08:57:23 51°25.089 2°47.343 -999 0.090474 0.56364 -1.279161
2008-10-31 08:57:28 51°25.097 2°47.361 -999 0.083373 0.517698 -1.244337
2008-10-31 08:57:32 51°25.105 2°47.375 -999 0.094385 0.589042 -1.279161
2008-10-31 08:57:38 51°25.115 2°47.396 -999 0.081932 0.50826 -1.244337
2008-10-31 08:57:43 51°25.124 2°47.413 -999 0.093871 0.585561 -1.279161
2008-10-31 08:57:48 51°25.132 2°47.431 -999 0.093871 0.585561 -1.279161
2008-10-31 08:57:52 51°25.138 2°47.446 -999 0.07514 0.464601 -1.244337
2008-10-31 08:57:58 51°25.149 2°47.467 -999 0.104986 0.658026 -1.279161
2008-10-31 08:58:03 51°25.157 2°47.486 -999 0.106015 0.66476 -1.279161
2008-10-31 08:58:08 51°25.165 2°47.505 -999 0.08327 0.516882 -1.279161
2008-10-31 08:58:12 51°25.171 2°47.519 -999 0.096752 0.604243 -1.244337
2008-10-31 08:58:18 51°25.18 2°47.541 -999 0.096752 0.604243 -1.244337
2008-10-31 08:58:23 51°25.188 2°47.56 -999 0.091915 0.572776 -1.279161
2008-10-31 08:58:28 51°25.196 2°47.578 -999 0.079565 0.492821 -1.279161
2008-10-31 08:58:33 51°25.203 2°47.597 -999 0.075037 0.463738 -1.244337
2008-10-31 08:58:38 51°25.212 2°47.615 -999 0.08183 0.507469 -1.244337
2008-10-31 08:58:43 51°25.22 2°47.633 -999 0.073596 0.454564 -1.244337
2008-10-31 08:58:48 51°25.227 2°47.652 -999 0.073596 0.454564 -1.244337
2008-10-31 08:58:53 51°25.236 2°47.67 -999 0.076787 0.4751 -1.244337
2008-10-31 08:58:58 51°25.243 2°47.689 -999 0.079051 0.489733 -1.279161
2008-10-31 08:59:03 51°25.25 2°47.708 -999 0.066084 0.40665 -1.279161
2008-10-31 08:59:08 51°25.258 2°47.727 -999 0.077301 0.478507 -1.244337
2008-10-31 08:59:12 51°25.264 2°47.743 -999 0.073391 0.453395 -1.279161
2008-10-31 08:59:18 51°25.272 2°47.766 -999 0.073391 0.453395 -1.279161
2008-10-31 08:59:23 51°25.279 2°47.786 -999 0.086461 0.53759 -1.244337
2008-10-31 08:59:28 51°25.286 2°47.805 -999 0.121762 0.768413 -1.244337
2008-10-31 08:59:33 51°25.293 2°47.825 -999 0.093562 0.583555 -1.244337
2008-10-31 08:59:38 51°25.301 2°47.844 -999 0.089137 0.554814 -1.244337
2008-10-31 08:59:43 51°25.308 2°47.863 -999 0.084814 0.526798 -1.244337
2008-10-31 08:59:48 51°25.315 2°47.882 -999 0.084814 0.526798 -1.244337
2008-10-31 08:59:53 51°25.322 2°47.902 -999 0.088004 0.547389 -1.279161
2008-10-31 08:59:58 51°25.33 2°47.921 -999 0.080286 0.497593 -1.279161
2008-10-31 09:00:03 51°25.336 2°47.941 -999 0.086255 0.536224 -1.244337
2008-10-31 09:00:08 51°25.343 2°47.961 -999 0.075758 0.468576 -1.244337
2008-10-31 09:00:12 51°25.349 2°47.976 -999 0.079668 0.49375 -1.244337
2008-10-31 09:00:18 51°25.357 2°48 -999 0.079668 0.49375 -1.244337
2008-10-31 09:00:23 51°25.365 2°48.019 -999 0.07689 0.47587 -1.244337
2008-10-31 09:00:28 51°25.372 2°48.038 -999 0.074111 0.458044 -1.279161
2008-10-31 09:00:32 51°25.378 2°48.053 -999 0.111573 0.70138 -1.279161
2008-10-31 09:00:38 51°25.386 2°48.077 -999 0.081521 0.505731 -1.279161
2008-10-31 09:00:43 51°25.394 2°48.095 -999 0.099634 0.623162 -1.244337
2008-10-31 09:00:48 51°25.402 2°48.115 -999 0.099634 0.623162 -1.244337
2008-10-31 09:00:53 51°25.409 2°48.134 -999 0.081932 0.508218 -1.279161
2008-10-31 09:00:58 51°25.417 2°48.153 -999 0.082962 0.514814 -1.279161
2008-10-31 09:01:03 51°25.424 2°48.173 -999 0.074728 0.461824 -1.244337
2008-10-31 09:01:08 51°25.432 2°48.192 -999 0.095929 0.598885 -1.279161
2008-10-31 09:01:13 51°25.439 2°48.211 -999 0.091298 0.568852 -1.279161
2008-10-31 09:01:18 51°25.446 2°48.231 -999 0.091298 0.568852 -1.279161
2008-10-31 09:01:23 51°25.454 2°48.25 -999 0.076787 0.475119 -1.244337
2008-10-31 09:01:28 51°25.462 2°48.269 -999 0.085432 0.530922 -1.279161
2008-10-31 09:01:32 51°25.468 2°48.285 -999 0.102619 0.642633 -1.279161
2008-10-31 09:01:38 51°25.477 2°48.308 -999 0.088828 0.552905 -1.244337
2008-10-31 09:01:43 51°25.484 2°48.328 -999 0.091915 0.572908 -1.244337
2008-10-31 09:01:48 51°25.491 2°48.347 -999 0.091915 0.572908 -1.244337
2008-10-31 09:01:53 51°25.499 2°48.367 -999 0.090783 0.56556 -1.244337
2008-10-31 09:01:58 51°25.506 2°48.387 -999 0.093047 0.580175 -1.279161
2008-10-31 09:02:03 51°25.513 2°48.406 -999 0.078022 0.482959 -1.279161
2008-10-31 09:02:08 51°25.52 2°48.426 -999 0.08327 0.516786 -1.279161
2008-10-31 09:02:12 51°25.526 2°48.441 -999 0.074008 0.457223 -1.279161
2008-10-31 09:02:18 51°25.535 2°48.466 -999 0.074008 0.457223 -1.279161
2008-10-31 09:02:23 51°25.542 2°48.486 -999 0.090577 0.564143 -1.279161
2008-10-31 09:02:28 51°25.549 2°48.506 -999 0.114454 0.720226 -1.279161
2008-10-31 09:02:32 51°25.554 2°48.522 -999 0.101589 0.635977 -1.244337
2008-10-31 09:02:38 51°25.563 2°48.545 -999 0.12135 0.765632 -1.279161
2008-10-31 09:02:43 51°25.569 2°48.566 -999 0.094282 0.58809 -1.279161
2008-10-31 09:02:48 51°25.576 2°48.585 -999 0.094282 0.58809 -1.279161
2008-10-31 09:02:52 51°25.582 2°48.601 -999 0.095106 0.593467 -1.279161